Darstellungsparameter: Aktuell verwendete Einstellungen:
Skalierung der Graphiken ... ?
xyx+y,   Skalierungsfaktor:      Skalierung: Modus: x, Faktor: 1
Darstellungszeitraum ... ?
Vom - - bis: - -   Zeitraum: 07.01.2021 - 11.01.2021
Min/Max/Avg-Anzeige ... ?
Zeige MMA aktuell
Zeige MMA Monat
Zeige MMA alles
Zeige --A aktuell
Zeige --A Monat
Zeige --A alles
Keine MMA-Anzeige
MMA:
Average (ber die Originaldaten)
MMA-Basis: 07.01.2021 - 11.01.2021
Quicknavigation für Darstellung... ?
Tage:      1T, 2T, 3T, 5T -1T -2T -3T -5T +1T +2T +3T +5T
Wochen: 1W, 2W, 3W -1W -2W -3W +1W +2W +3W
Monate: 1M, 3M, 6M -1M -3M -6M +1M +3M +6M
Jahre:    1J, 3J, 5J, 10J -1J -3J -5J -10J +1J +3J +5J +10J
Nutze für die Darstellung ... ?
Originaldaten oder Mittelwerte auf ...
Stundenbasis Tagesbasis Wochenbasis
Monatsbasis Jahresbasis      Datenbasis: Original-Daten
Darstellen als:
Statistik (Auto) Statistik J:M      Darstellung:
Zur Graphik,    zurück zur Übersicht aller Sensoren.
 
Tabellarische Datenbersicht: ?
 
Sensor: Nr:Datum:Temp:Abs-Feuchte:Windchill:Wind:
Aussen-T/F 1 07-01-2021 00:00:00 2.1 C 5.04 g/m*3 -0.3 C 8.1 km/h
2 07-01-2021 00:05:00 2.1 C 5.04 g/m*3 2.1 C 4.8 km/h
3 07-01-2021 00:10:00 2.1 C 5.04 g/m*3 2.1 C 4.8 km/h
4 07-01-2021 00:15:00 2.1 C 5.04 g/m*3 2.1 C 4.8 km/h
5 07-01-2021 00:20:00 2.1 C 4.98 g/m*3 2.1 C 4.8 km/h
6 07-01-2021 00:25:00 2.1 C 4.98 g/m*3 -1.44 C 12.9 km/h
7 07-01-2021 00:30:00 2.1 C 4.98 g/m*3 -0.73 C 9.7 km/h
8 07-01-2021 00:35:00 2.1 C 4.98 g/m*3 2.1 C 4.8 km/h
9 07-01-2021 00:40:00 2.1 C 4.98 g/m*3 2.1 C 4.8 km/h
10 07-01-2021 00:45:00 2.1 C 4.98 g/m*3 -1.44 C 12.9 km/h
11 07-01-2021 00:50:00 2.1 C 4.98 g/m*3 0.24 C 6.4 km/h
12 07-01-2021 00:55:00 2 C 4.95 g/m*3 -0.42 C 8.1 km/h
13 07-01-2021 01:00:00 2 C 5 g/m*3 2 C 4.8 km/h
14 07-01-2021 01:05:00 2 C 5 g/m*3 2 C 0 km/h
15 07-01-2021 01:10:00 1.9 C 4.97 g/m*3 1.9 C 1.6 km/h
16 07-01-2021 01:15:00 1.9 C 4.97 g/m*3 0.01 C 6.4 km/h
17 07-01-2021 01:20:00 1.9 C 4.97 g/m*3 1.9 C 1.6 km/h
18 07-01-2021 01:25:00 1.8 C 4.99 g/m*3 1.8 C 0 km/h
19 07-01-2021 01:30:00 1.8 C 4.99 g/m*3 1.8 C 1.6 km/h
20 07-01-2021 01:35:00 1.8 C 4.99 g/m*3 1.8 C 0 km/h
21 07-01-2021 01:40:00 1.8 C 4.99 g/m*3 1.8 C 0 km/h
22 07-01-2021 01:45:00 1.7 C 4.95 g/m*3 1.7 C 0 km/h
23 07-01-2021 01:50:00 1.7 C 4.95 g/m*3 1.7 C 0 km/h
24 07-01-2021 01:55:00 1.7 C 5.01 g/m*3 1.7 C 0 km/h
25 07-01-2021 02:00:00 1.6 C 4.97 g/m*3 1.6 C 0 km/h
Sensor: Nr:Datum:Temp:Abs-Feuchte:Windchill:Wind:
Aussen-T/F 26 07-01-2021 02:05:00 1.6 C 4.97 g/m*3 1.6 C 0 km/h
27 07-01-2021 02:10:00 1.6 C 4.97 g/m*3 1.6 C 0 km/h
28 07-01-2021 02:15:00 1.5 C 4.94 g/m*3 1.5 C 0 km/h
29 07-01-2021 02:20:00 1.5 C 4.94 g/m*3 1.5 C 1.6 km/h
30 07-01-2021 02:25:00 1.4 C 4.91 g/m*3 1.4 C 0 km/h
31 07-01-2021 02:30:00 1.4 C 4.91 g/m*3 1.4 C 3.2 km/h
32 07-01-2021 02:35:00 1.4 C 4.91 g/m*3 1.4 C 1.6 km/h
33 07-01-2021 02:40:00 1.4 C 4.96 g/m*3 1.4 C 0 km/h
34 07-01-2021 02:45:00 1.4 C 4.96 g/m*3 1.4 C 0 km/h
35 07-01-2021 02:50:00 1.4 C 4.96 g/m*3 1.4 C 1.6 km/h
36 07-01-2021 02:55:00 1.3 C 4.93 g/m*3 1.3 C 0 km/h
37 07-01-2021 03:00:00 1.3 C 4.93 g/m*3 1.3 C 0 km/h
38 07-01-2021 03:05:00 1.3 C 4.93 g/m*3 1.3 C 0 km/h
39 07-01-2021 03:10:00 1.3 C 4.93 g/m*3 1.3 C 0 km/h
40 07-01-2021 03:15:00 1.3 C 4.93 g/m*3 1.3 C 0 km/h
41 07-01-2021 03:20:00 1.3 C 4.93 g/m*3 1.3 C 0 km/h
42 07-01-2021 03:25:00 1.3 C 4.93 g/m*3 1.3 C 0 km/h
43 07-01-2021 03:30:00 1.3 C 4.93 g/m*3 1.3 C 0 km/h
44 07-01-2021 03:35:00 1.2 C 4.89 g/m*3 1.2 C 0 km/h
45 07-01-2021 03:40:00 1.2 C 4.89 g/m*3 1.2 C 0 km/h
46 07-01-2021 03:45:00 1.2 C 4.89 g/m*3 1.2 C 0 km/h
47 07-01-2021 03:50:00 1.2 C 4.89 g/m*3 1.2 C 0 km/h
48 07-01-2021 03:55:00 1.2 C 4.89 g/m*3 1.2 C 0 km/h
49 07-01-2021 04:00:00 1.2 C 4.89 g/m*3 1.2 C 0 km/h
50 07-01-2021 04:05:00 1.2 C 4.89 g/m*3 1.2 C 0 km/h
Sensor: Nr:Datum:Temp:Abs-Feuchte:Windchill:Wind:
Aussen-T/F 51 07-01-2021 04:10:00 1.2 C 4.89 g/m*3 1.2 C 0 km/h
52 07-01-2021 04:15:00 1.2 C 4.89 g/m*3 1.2 C 0 km/h
53 07-01-2021 04:20:00 1.2 C 4.89 g/m*3 1.2 C 0 km/h
54 07-01-2021 04:25:00 1.2 C 4.95 g/m*3 1.2 C 0 km/h
55 07-01-2021 04:30:00 1.2 C 4.95 g/m*3 1.2 C 0 km/h
56 07-01-2021 04:35:00 1.2 C 4.95 g/m*3 1.2 C 0 km/h
57 07-01-2021 04:40:00 1.2 C 4.95 g/m*3 1.2 C 0 km/h
58 07-01-2021 04:45:00 1.2 C 4.95 g/m*3 1.2 C 0 km/h
59 07-01-2021 04:50:00 1.3 C 4.98 g/m*3 1.3 C 0 km/h
60 07-01-2021 04:55:00 1.3 C 4.98 g/m*3 1.3 C 0 km/h
61 07-01-2021 05:00:00 1.3 C 4.98 g/m*3 1.3 C 0 km/h
62 07-01-2021 05:05:00 1.3 C 4.98 g/m*3 1.3 C 1.6 km/h
63 07-01-2021 05:10:00 1.3 C 4.98 g/m*3 1.3 C 1.6 km/h
64 07-01-2021 05:15:00 1.3 C 4.98 g/m*3 1.3 C 3.2 km/h
65 07-01-2021 05:20:00 1.3 C 4.98 g/m*3 1.3 C 0 km/h
66 07-01-2021 05:25:00 1.3 C 4.98 g/m*3 1.3 C 0 km/h
67 07-01-2021 05:30:00 1.3 C 4.98 g/m*3 1.3 C 0 km/h
68 07-01-2021 05:35:00 1.4 C 5.01 g/m*3 1.4 C 0 km/h
69 07-01-2021 05:40:00 1.4 C 5.01 g/m*3 1.4 C 0 km/h
70 07-01-2021 05:45:00 1.4 C 4.96 g/m*3 1.4 C 1.6 km/h
71 07-01-2021 05:50:00 1.4 C 4.96 g/m*3 1.4 C 3.2 km/h
72 07-01-2021 05:55:00 1.4 C 4.96 g/m*3 1.4 C 1.6 km/h
73 07-01-2021 06:00:00 1.4 C 4.96 g/m*3 1.4 C 3.2 km/h
74 07-01-2021 06:05:00 1.4 C 4.96 g/m*3 1.4 C 3.2 km/h
75 07-01-2021 06:10:00 1.4 C 4.96 g/m*3 1.4 C 3.2 km/h
Sensor: Nr:Datum:Temp:Abs-Feuchte:Windchill:Wind:
Aussen-T/F 76 07-01-2021 06:15:00 1.4 C 4.96 g/m*3 1.4 C 1.6 km/h
77 07-01-2021 06:20:00 1.5 C 4.99 g/m*3 1.5 C 1.6 km/h
78 07-01-2021 06:25:00 1.5 C 4.99 g/m*3 1.5 C 3.2 km/h
79 07-01-2021 06:30:00 1.5 C 4.94 g/m*3 -0.45 C 6.4 km/h
80 07-01-2021 06:35:00 1.5 C 4.94 g/m*3 1.5 C 1.6 km/h
81 07-01-2021 06:40:00 1.6 C 4.97 g/m*3 1.6 C 3.2 km/h
82 07-01-2021 06:45:00 1.6 C 4.97 g/m*3 1.6 C 1.6 km/h
83 07-01-2021 06:50:00 1.6 C 4.97 g/m*3 1.6 C 3.2 km/h
84 07-01-2021 06:55:00 1.6 C 4.97 g/m*3 1.6 C 4.8 km/h
85 07-01-2021 07:00:00 1.6 C 4.97 g/m*3 1.6 C 4.8 km/h
86 07-01-2021 07:05:00 1.7 C 5.01 g/m*3 1.7 C 4.8 km/h
87 07-01-2021 07:10:00 1.7 C 5.01 g/m*3 1.7 C 4.8 km/h
88 07-01-2021 07:15:00 1.7 C 4.95 g/m*3 -0.22 C 6.4 km/h
89 07-01-2021 07:20:00 1.7 C 4.95 g/m*3 1.7 C 4.8 km/h
90 07-01-2021 07:25:00 1.7 C 4.95 g/m*3 -1.21 C 9.7 km/h
91 07-01-2021 07:30:00 1.7 C 4.95 g/m*3 1.7 C 3.2 km/h
92 07-01-2021 07:35:00 1.8 C 4.99 g/m*3 1.8 C 4.8 km/h
93 07-01-2021 07:40:00 1.8 C 4.99 g/m*3 -0.1 C 6.4 km/h
94 07-01-2021 07:45:00 1.8 C 4.99 g/m*3 1.8 C 4.8 km/h
95 07-01-2021 07:50:00 1.8 C 4.99 g/m*3 1.8 C 4.8 km/h
96 07-01-2021 07:55:00 1.8 C 4.99 g/m*3 -0.1 C 6.4 km/h
97 07-01-2021 08:00:00 1.7 C 4.95 g/m*3 -0.22 C 6.4 km/h
98 07-01-2021 08:05:00 1.7 C 4.95 g/m*3 1.7 C 4.8 km/h
99 07-01-2021 08:10:00 1.7 C 4.95 g/m*3 -1.21 C 9.7 km/h
100 07-01-2021 08:15:00 1.7 C 4.95 g/m*3 -0.22 C 6.4 km/h
Sensor: Nr:Datum:Temp:Abs-Feuchte:Windchill:Wind:
Aussen-T/F 101 07-01-2021 08:20:00 1.7 C 4.95 g/m*3 1.7 C 3.2 km/h
102 07-01-2021 08:25:00 1.7 C 4.95 g/m*3 1.7 C 4.8 km/h
103 07-01-2021 08:30:00 1.7 C 4.9 g/m*3 -1.21 C 9.7 km/h
104 07-01-2021 08:35:00 1.7 C 4.9 g/m*3 1.7 C 4.8 km/h
105 07-01-2021 08:40:00 1.8 C 4.93 g/m*3 1.8 C 4.8 km/h
106 07-01-2021 08:45:00 1.8 C 4.93 g/m*3 -0.1 C 6.4 km/h
107 07-01-2021 08:50:00 1.8 C 4.93 g/m*3 1.8 C 4.8 km/h
108 07-01-2021 08:55:00 1.8 C 4.93 g/m*3 -1.09 C 9.7 km/h
109 07-01-2021 09:00:00 1.8 C 4.93 g/m*3 -0.1 C 6.4 km/h
110 07-01-2021 09:05:00 1.8 C 4.93 g/m*3 -1.09 C 9.7 km/h
111 07-01-2021 09:10:00 1.9 C 4.91 g/m*3 0.01 C 6.4 km/h
112 07-01-2021 09:15:00 1.9 C 4.91 g/m*3 0.01 C 6.4 km/h
113 07-01-2021 09:20:00 1.9 C 4.91 g/m*3 -0.54 C 8.1 km/h
114 07-01-2021 09:25:00 1.9 C 4.91 g/m*3 1.9 C 3.2 km/h
115 07-01-2021 09:30:00 1.9 C 4.97 g/m*3 1.9 C 3.2 km/h
116 07-01-2021 09:35:00 1.9 C 4.97 g/m*3 -0.54 C 8.1 km/h
117 07-01-2021 09:40:00 1.9 C 4.97 g/m*3 1.9 C 4.8 km/h
118 07-01-2021 09:45:00 1.9 C 4.97 g/m*3 1.9 C 3.2 km/h
119 07-01-2021 09:50:00 2 C 5 g/m*3 2 C 3.2 km/h
120 07-01-2021 09:55:00 2 C 5 g/m*3 2 C 4.8 km/h
121 07-01-2021 10:00:00 2 C 5 g/m*3 2 C 1.6 km/h
122 07-01-2021 10:05:00 2 C 5 g/m*3 2 C 1.6 km/h
123 07-01-2021 10:10:00 2.1 C 5.04 g/m*3 0.24 C 6.4 km/h
124 07-01-2021 10:15:00 2.1 C 5.04 g/m*3 2.1 C 3.2 km/h
125 07-01-2021 10:20:00 2.1 C 5.04 g/m*3 2.1 C 1.6 km/h
Sensor: Nr:Datum:Temp:Abs-Feuchte:Windchill:Wind:
Aussen-T/F 126 07-01-2021 10:25:00 2.1 C 5.04 g/m*3 2.1 C 1.6 km/h
127 07-01-2021 10:30:00 2.2 C 5.01 g/m*3 2.2 C 4.8 km/h
128 07-01-2021 10:35:00 2.2 C 5.01 g/m*3 2.2 C 4.8 km/h
129 07-01-2021 10:40:00 2.3 C 5.05 g/m*3 0.47 C 6.4 km/h
130 07-01-2021 10:45:00 2.3 C 5.05 g/m*3 2.3 C 4.8 km/h
131 07-01-2021 10:50:00 2.4 C 5.08 g/m*3 0.05 C 8.1 km/h
132 07-01-2021 10:55:00 2.4 C 5.08 g/m*3 2.4 C 3.2 km/h
133 07-01-2021 11:00:00 2.5 C 5.12 g/m*3 0.71 C 6.4 km/h
134 07-01-2021 11:05:00 2.5 C 5.12 g/m*3 2.5 C 4.8 km/h
135 07-01-2021 11:10:00 2.6 C 5.09 g/m*3 0.82 C 6.4 km/h
136 07-01-2021 11:15:00 2.6 C 5.15 g/m*3 2.6 C 4.8 km/h
137 07-01-2021 11:20:00 2.7 C 5.13 g/m*3 2.7 C 4.8 km/h
138 07-01-2021 11:25:00 2.7 C 5.13 g/m*3 0.94 C 6.4 km/h
139 07-01-2021 11:30:00 2.8 C 5.16 g/m*3 2.8 C 4.8 km/h
140 07-01-2021 11:35:00 2.8 C 5.1 g/m*3 -0.26 C 11.3 km/h
141 07-01-2021 11:40:00 2.8 C 5.1 g/m*3 0.1 C 9.7 km/h
142 07-01-2021 11:45:00 2.8 C 5.16 g/m*3 1.05 C 6.4 km/h
143 07-01-2021 11:50:00 2.8 C 5.1 g/m*3 0.52 C 8.1 km/h
144 07-01-2021 11:55:00 2.8 C 5.16 g/m*3 0.52 C 8.1 km/h
145 07-01-2021 12:00:00 2.9 C 5.14 g/m*3 -0.14 C 11.3 km/h
146 07-01-2021 12:05:00 2.8 C 5.1 g/m*3 -0.26 C 11.3 km/h
147 07-01-2021 12:10:00 2.9 C 5.2 g/m*3 0.22 C 9.7 km/h
148 07-01-2021 12:15:00 2.9 C 5.2 g/m*3 0.64 C 8.1 km/h
149 07-01-2021 12:20:00 2.9 C 5.2 g/m*3 2.9 C 4.8 km/h
150 07-01-2021 12:25:00 2.9 C 5.2 g/m*3 0.22 C 9.7 km/h
Sensor: Nr:Datum:Temp:Abs-Feuchte:Windchill:Wind:
Aussen-T/F 151 07-01-2021 12:30:00 2.8 C 5.16 g/m*3 -0.59 C 12.9 km/h
152 07-01-2021 12:35:00 2.7 C 5.13 g/m*3 -0.02 C 9.7 km/h
153 07-01-2021 12:40:00 2.6 C 5.15 g/m*3 -0.5 C 11.3 km/h
154 07-01-2021 12:45:00 2.4 C 5.14 g/m*3 0.05 C 8.1 km/h
155 07-01-2021 12:50:00 2.4 C 5.2 g/m*3 0.59 C 6.4 km/h
156 07-01-2021 12:55:00 2.4 C 5.2 g/m*3 -0.37 C 9.7 km/h
157 07-01-2021 13:00:00 2.5 C 5.29 g/m*3 0.71 C 6.4 km/h
158 07-01-2021 13:05:00 2.6 C 5.32 g/m*3 -0.5 C 11.3 km/h
159 07-01-2021 13:10:00 2.5 C 5.29 g/m*3 0.17 C 8.1 km/h
160 07-01-2021 13:15:00 2.5 C 5.29 g/m*3 0.71 C 6.4 km/h
161 07-01-2021 13:20:00 2.6 C 5.38 g/m*3 0.29 C 8.1 km/h
162 07-01-2021 13:25:00 2.6 C 5.32 g/m*3 -0.14 C 9.7 km/h
163 07-01-2021 13:30:00 2.7 C 5.42 g/m*3 0.4 C 8.1 km/h
164 07-01-2021 13:35:00 2.7 C 5.42 g/m*3 2.7 C 4.8 km/h
165 07-01-2021 13:40:00 2.8 C 5.46 g/m*3 0.52 C 8.1 km/h
166 07-01-2021 13:45:00 2.8 C 5.4 g/m*3 1.05 C 6.4 km/h
167 07-01-2021 13:50:00 2.9 C 5.49 g/m*3 1.17 C 6.4 km/h
168 07-01-2021 13:55:00 3 C 5.53 g/m*3 0.76 C 8.1 km/h
169 07-01-2021 14:00:00 3 C 5.47 g/m*3 0.34 C 9.7 km/h
170 07-01-2021 14:05:00 3 C 5.47 g/m*3 1.28 C 6.4 km/h
171 07-01-2021 14:10:00 3 C 5.47 g/m*3 0.76 C 8.1 km/h
172 07-01-2021 14:15:00 2.9 C 5.37 g/m*3 -0.14 C 11.3 km/h
173 07-01-2021 14:20:00 2.9 C 5.43 g/m*3 2.9 C 4.8 km/h
174 07-01-2021 14:25:00 2.8 C 5.4 g/m*3 0.1 C 9.7 km/h
175 07-01-2021 14:30:00 2.8 C 5.4 g/m*3 1.05 C 6.4 km/h
Sensor: Nr:Datum:Temp:Abs-Feuchte:Windchill:Wind:
Aussen-T/F 176 07-01-2021 14:35:00 2.8 C 5.4 g/m*3 0.52 C 8.1 km/h
177 07-01-2021 14:40:00 2.8 C 5.4 g/m*3 1.05 C 6.4 km/h
178 07-01-2021 14:45:00 2.7 C 5.36 g/m*3 0.94 C 6.4 km/h
179 07-01-2021 14:50:00 2.7 C 5.42 g/m*3 2.7 C 4.8 km/h
180 07-01-2021 14:55:00 2.7 C 5.42 g/m*3 2.7 C 4.8 km/h
181 07-01-2021 15:00:00 2.6 C 5.38 g/m*3 2.6 C 3.2 km/h
182 07-01-2021 15:05:00 2.6 C 5.38 g/m*3 0.82 C 6.4 km/h
183 07-01-2021 15:10:00 2.5 C 5.35 g/m*3 -0.95 C 12.9 km/h
184 07-01-2021 15:15:00 2.5 C 5.35 g/m*3 0.17 C 8.1 km/h
185 07-01-2021 15:20:00 2.4 C 5.31 g/m*3 0.05 C 8.1 km/h
186 07-01-2021 15:25:00 2.4 C 5.31 g/m*3 0.59 C 6.4 km/h
187 07-01-2021 15:30:00 2.4 C 5.31 g/m*3 2.4 C 4.8 km/h
188 07-01-2021 15:35:00 2.4 C 5.31 g/m*3 0.59 C 6.4 km/h
189 07-01-2021 15:40:00 2.4 C 5.31 g/m*3 0.05 C 8.1 km/h
190 07-01-2021 15:45:00 2.4 C 5.31 g/m*3 2.4 C 4.8 km/h
191 07-01-2021 15:50:00 2.4 C 5.31 g/m*3 0.05 C 8.1 km/h
192 07-01-2021 15:55:00 2.4 C 5.31 g/m*3 0.59 C 6.4 km/h
193 07-01-2021 16:00:00 2.4 C 5.31 g/m*3 0.59 C 6.4 km/h
194 07-01-2021 16:05:00 2.4 C 5.31 g/m*3 0.59 C 6.4 km/h
195 07-01-2021 16:10:00 2.4 C 5.31 g/m*3 0.59 C 6.4 km/h
196 07-01-2021 16:15:00 2.4 C 5.31 g/m*3 0.05 C 8.1 km/h
197 07-01-2021 16:20:00 2.4 C 5.31 g/m*3 0.59 C 6.4 km/h
198 07-01-2021 16:25:00 2.4 C 5.31 g/m*3 2.4 C 4.8 km/h
199 07-01-2021 16:30:00 2.4 C 5.31 g/m*3 0.59 C 6.4 km/h
200 07-01-2021 16:35:00 2.4 C 5.31 g/m*3 -0.37 C 9.7 km/h
Sensor: Nr:Datum:Temp:Abs-Feuchte:Windchill:Wind:
Aussen-T/F 201 07-01-2021 16:40:00 2.4 C 5.31 g/m*3 -0.37 C 9.7 km/h
202 07-01-2021 16:45:00 2.4 C 5.31 g/m*3 -1.37 C 14.5 km/h
203 07-01-2021 16:50:00 2.4 C 5.31 g/m*3 0.05 C 8.1 km/h
204 07-01-2021 16:55:00 2.4 C 5.31 g/m*3 0.05 C 8.1 km/h
205 07-01-2021 17:00:00 2.4 C 5.31 g/m*3 0.05 C 8.1 km/h
206 07-01-2021 17:05:00 2.4 C 5.31 g/m*3 -0.74 C 11.3 km/h
207 07-01-2021 17:10:00 2.4 C 5.31 g/m*3 -0.37 C 9.7 km/h
208 07-01-2021 17:15:00 2.4 C 5.31 g/m*3 2.4 C 3.2 km/h
209 07-01-2021 17:20:00 2.4 C 5.31 g/m*3 2.4 C 3.2 km/h
210 07-01-2021 17:25:00 2.3 C 5.27 g/m*3 2.3 C 3.2 km/h
211 07-01-2021 17:30:00 2.3 C 5.33 g/m*3 0.47 C 6.4 km/h
212 07-01-2021 17:35:00 2.3 C 5.33 g/m*3 0.47 C 6.4 km/h
213 07-01-2021 17:40:00 2.3 C 5.33 g/m*3 -0.07 C 8.1 km/h
214 07-01-2021 17:45:00 2.4 C 5.37 g/m*3 2.4 C 4.8 km/h
215 07-01-2021 17:50:00 2.4 C 5.37 g/m*3 0.59 C 6.4 km/h
216 07-01-2021 17:55:00 2.4 C 5.37 g/m*3 0.05 C 8.1 km/h
217 07-01-2021 18:00:00 2.4 C 5.37 g/m*3 0.59 C 6.4 km/h
218 07-01-2021 18:05:00 2.4 C 5.31 g/m*3 2.4 C 4.8 km/h
219 07-01-2021 18:10:00 2.4 C 5.31 g/m*3 0.59 C 6.4 km/h
220 07-01-2021 18:15:00 2.4 C 5.37 g/m*3 0.05 C 8.1 km/h
221 07-01-2021 18:20:00 2.4 C 5.37 g/m*3 0.59 C 6.4 km/h
222 07-01-2021 18:25:00 2.4 C 5.37 g/m*3 0.05 C 8.1 km/h
223 07-01-2021 18:30:00 2.4 C 5.37 g/m*3 -0.37 C 9.7 km/h
224 07-01-2021 18:35:00 2.4 C 5.37 g/m*3 -0.74 C 11.3 km/h
225 07-01-2021 18:40:00 2.4 C 5.37 g/m*3 0.05 C 8.1 km/h
Sensor: Nr:Datum:Temp:Abs-Feuchte:Windchill:Wind:
Aussen-T/F 226 07-01-2021 18:45:00 2.3 C 5.33 g/m*3 -0.87 C 11.3 km/h
227 07-01-2021 18:50:00 2.3 C 5.33 g/m*3 0.47 C 6.4 km/h
228 07-01-2021 18:55:00 2.3 C 5.33 g/m*3 -0.49 C 9.7 km/h
229 07-01-2021 19:00:00 2.2 C 5.29 g/m*3 0.36 C 6.4 km/h
230 07-01-2021 19:05:00 2.2 C 5.29 g/m*3 0.36 C 6.4 km/h
231 07-01-2021 19:10:00 2.2 C 5.29 g/m*3 0.36 C 6.4 km/h
232 07-01-2021 19:15:00 2.2 C 5.29 g/m*3 -0.18 C 8.1 km/h
233 07-01-2021 19:20:00 2.2 C 5.35 g/m*3 -0.18 C 8.1 km/h
234 07-01-2021 19:25:00 2.2 C 5.35 g/m*3 0.36 C 6.4 km/h
235 07-01-2021 19:30:00 2.2 C 5.35 g/m*3 0.36 C 6.4 km/h
236 07-01-2021 19:35:00 2.2 C 5.35 g/m*3 0.36 C 6.4 km/h
237 07-01-2021 19:40:00 2.2 C 5.35 g/m*3 0.36 C 6.4 km/h
238 07-01-2021 19:45:00 2.2 C 5.35 g/m*3 -0.61 C 9.7 km/h
239 07-01-2021 19:50:00 2.2 C 5.35 g/m*3 2.2 C 4.8 km/h
240 07-01-2021 19:55:00 2.2 C 5.35 g/m*3 -0.99 C 11.3 km/h
241 07-01-2021 20:00:00 2.2 C 5.35 g/m*3 2.2 C 4.8 km/h
242 07-01-2021 20:05:00 2.1 C 5.31 g/m*3 2.1 C 4.8 km/h
243 07-01-2021 20:10:00 2.1 C 5.31 g/m*3 -0.3 C 8.1 km/h
244 07-01-2021 20:15:00 2.1 C 5.31 g/m*3 -1.11 C 11.3 km/h
245 07-01-2021 20:20:00 2.1 C 5.31 g/m*3 2.1 C 3.2 km/h
246 07-01-2021 20:25:00 2.1 C 5.31 g/m*3 2.1 C 3.2 km/h
247 07-01-2021 20:30:00 2.1 C 5.31 g/m*3 0.24 C 6.4 km/h
248 07-01-2021 20:35:00 2.1 C 5.31 g/m*3 -0.73 C 9.7 km/h
249 07-01-2021 20:40:00 2.1 C 5.31 g/m*3 0.24 C 6.4 km/h
250 07-01-2021 20:45:00 2.1 C 5.31 g/m*3 2.1 C 4.8 km/h
Sensor: Nr:Datum:Temp:Abs-Feuchte:Windchill:Wind:
Aussen-T/F 251 07-01-2021 20:50:00 2.1 C 5.31 g/m*3 0.24 C 6.4 km/h
252 07-01-2021 20:55:00 2 C 5.22 g/m*3 -0.85 C 9.7 km/h
253 07-01-2021 21:00:00 2 C 5.22 g/m*3 -1.23 C 11.3 km/h
254 07-01-2021 21:05:00 2 C 5.22 g/m*3 -0.42 C 8.1 km/h
255 07-01-2021 21:10:00 2 C 5.22 g/m*3 0.13 C 6.4 km/h
256 07-01-2021 21:15:00 1.9 C 5.19 g/m*3 1.9 C 4.8 km/h
257 07-01-2021 21:20:00 1.9 C 5.24 g/m*3 0.01 C 6.4 km/h
258 07-01-2021 21:25:00 1.9 C 5.24 g/m*3 -0.97 C 9.7 km/h
259 07-01-2021 21:30:00 1.9 C 5.19 g/m*3 -0.54 C 8.1 km/h
260 07-01-2021 21:35:00 1.9 C 5.19 g/m*3 0.01 C 6.4 km/h
261 07-01-2021 21:40:00 1.8 C 5.15 g/m*3 -1.09 C 9.7 km/h
262 07-01-2021 21:45:00 1.8 C 5.15 g/m*3 -1.47 C 11.3 km/h
263 07-01-2021 21:50:00 1.8 C 5.15 g/m*3 -0.65 C 8.1 km/h
264 07-01-2021 21:55:00 1.8 C 5.15 g/m*3 -0.65 C 8.1 km/h
265 07-01-2021 22:00:00 1.8 C 5.15 g/m*3 -1.09 C 9.7 km/h
266 07-01-2021 22:05:00 1.9 C 5.19 g/m*3 -0.97 C 9.7 km/h
267 07-01-2021 22:10:00 1.9 C 5.19 g/m*3 -1.68 C 12.9 km/h
268 07-01-2021 22:15:00 1.9 C 5.19 g/m*3 -1.35 C 11.3 km/h
269 07-01-2021 22:20:00 1.9 C 5.19 g/m*3 -0.97 C 9.7 km/h
270 07-01-2021 22:25:00 1.9 C 5.13 g/m*3 -1.35 C 11.3 km/h
271 07-01-2021 22:30:00 1.9 C 5.13 g/m*3 1.9 C 4.8 km/h
272 07-01-2021 22:35:00 1.9 C 5.13 g/m*3 -1.35 C 11.3 km/h
273 07-01-2021 22:40:00 2 C 5.17 g/m*3 0.13 C 6.4 km/h
274 07-01-2021 22:45:00 1.9 C 5.13 g/m*3 -0.54 C 8.1 km/h
275 07-01-2021 22:50:00 1.9 C 5.13 g/m*3 0.01 C 6.4 km/h
Sensor: Nr:Datum:Temp:Abs-Feuchte:Windchill:Wind:
Aussen-T/F 276 07-01-2021 22:55:00 1.9 C 5.13 g/m*3 1.9 C 3.2 km/h
277 07-01-2021 23:00:00 1.9 C 5.13 g/m*3 -1.35 C 11.3 km/h
278 07-01-2021 23:05:00 1.9 C 5.13 g/m*3 -0.54 C 8.1 km/h
279 07-01-2021 23:10:00 2 C 5.17 g/m*3 -0.85 C 9.7 km/h
280 07-01-2021 23:15:00 2 C 5.17 g/m*3 -1.56 C 12.9 km/h
281 07-01-2021 23:20:00 2 C 5.17 g/m*3 -1.23 C 11.3 km/h
282 07-01-2021 23:25:00 2.1 C 5.2 g/m*3 -0.3 C 8.1 km/h
283 07-01-2021 23:30:00 2 C 5.17 g/m*3 2 C 4.8 km/h
284 07-01-2021 23:35:00 1.9 C 5.13 g/m*3 0.01 C 6.4 km/h
285 07-01-2021 23:40:00 1.9 C 5.13 g/m*3 -1.68 C 12.9 km/h
286 07-01-2021 23:45:00 1.9 C 5.13 g/m*3 -0.54 C 8.1 km/h
287 07-01-2021 23:50:00 1.8 C 5.1 g/m*3 -0.65 C 8.1 km/h
288 07-01-2021 23:55:00 1.8 C 5.1 g/m*3 -0.1 C 6.4 km/h
289 08-01-2021 00:00:00 1.8 C 5.1 g/m*3 -0.65 C 8.1 km/h
290 08-01-2021 00:05:00 1.8 C 5.15 g/m*3 -0.1 C 6.4 km/h
291 08-01-2021 00:10:00 1.8 C 5.15 g/m*3 -1.09 C 9.7 km/h
292 08-01-2021 00:15:00 1.8 C 5.15 g/m*3 -1.8 C 12.9 km/h
293 08-01-2021 00:20:00 1.8 C 5.15 g/m*3 -2.38 C 16.1 km/h
294 08-01-2021 00:25:00 1.7 C 5.12 g/m*3 -1.59 C 11.3 km/h
295 08-01-2021 00:30:00 1.7 C 5.12 g/m*3 -0.77 C 8.1 km/h
296 08-01-2021 00:35:00 1.7 C 5.12 g/m*3 -1.21 C 9.7 km/h
297 08-01-2021 00:40:00 1.7 C 5.12 g/m*3 -1.93 C 12.9 km/h
298 08-01-2021 00:45:00 1.7 C 5.12 g/m*3 -0.22 C 6.4 km/h
299 08-01-2021 00:50:00 1.7 C 5.12 g/m*3 -0.77 C 8.1 km/h
300 08-01-2021 00:55:00 1.6 C 5.08 g/m*3 -1.71 C 11.3 km/h
Sensor: Nr:Datum:Temp:Abs-Feuchte:Windchill:Wind:
Aussen-T/F 301 08-01-2021 01:00:00 1.7 C 5.12 g/m*3 -1.93 C 12.9 km/h
302 08-01-2021 01:05:00 1.7 C 5.12 g/m*3 1.7 C 3.2 km/h
303 08-01-2021 01:10:00 1.6 C 5.08 g/m*3 1.6 C 1.6 km/h
304 08-01-2021 01:15:00 1.6 C 5.08 g/m*3 1.6 C 3.2 km/h
305 08-01-2021 01:20:00 1.6 C 5.08 g/m*3 -1.33 C 9.7 km/h
306 08-01-2021 01:25:00 1.6 C 5.14 g/m*3 1.6 C 3.2 km/h
307 08-01-2021 01:30:00 1.6 C 5.14 g/m*3 1.6 C 4.8 km/h
308 08-01-2021 01:35:00 1.6 C 5.14 g/m*3 -1.71 C 11.3 km/h
309 08-01-2021 01:40:00 1.6 C 5.14 g/m*3 -1.71 C 11.3 km/h
310 08-01-2021 01:45:00 1.6 C 5.14 g/m*3 -1.33 C 9.7 km/h
311 08-01-2021 01:50:00 1.7 C 5.17 g/m*3 -1.59 C 11.3 km/h
312 08-01-2021 01:55:00 1.7 C 5.17 g/m*3 -1.21 C 9.7 km/h
313 08-01-2021 02:00:00 1.7 C 5.17 g/m*3 -1.21 C 9.7 km/h
314 08-01-2021 02:05:00 1.7 C 5.12 g/m*3 -0.77 C 8.1 km/h
315 08-01-2021 02:10:00 1.7 C 5.12 g/m*3 1.7 C 4.8 km/h
316 08-01-2021 02:15:00 1.7 C 5.12 g/m*3 -0.77 C 8.1 km/h
317 08-01-2021 02:20:00 1.8 C 5.15 g/m*3 -0.1 C 6.4 km/h
318 08-01-2021 02:25:00 1.8 C 5.15 g/m*3 -0.1 C 6.4 km/h
319 08-01-2021 02:30:00 1.8 C 5.15 g/m*3 1.8 C 4.8 km/h
320 08-01-2021 02:35:00 1.8 C 5.15 g/m*3 1.8 C 3.2 km/h
321 08-01-2021 02:40:00 1.8 C 5.15 g/m*3 -1.09 C 9.7 km/h
322 08-01-2021 02:45:00 1.8 C 5.15 g/m*3 -0.65 C 8.1 km/h
323 08-01-2021 02:50:00 1.8 C 5.15 g/m*3 -0.65 C 8.1 km/h
324 08-01-2021 02:55:00 1.8 C 5.15 g/m*3 -0.65 C 8.1 km/h
325 08-01-2021 03:00:00 1.8 C 5.15 g/m*3 -1.09 C 9.7 km/h
Sensor: Nr:Datum:Temp:Abs-Feuchte:Windchill:Wind:
Aussen-T/F 326 08-01-2021 03:05:00 1.8 C 5.15 g/m*3 -0.65 C 8.1 km/h
327 08-01-2021 03:10:00 1.8 C 5.15 g/m*3 -1.8 C 12.9 km/h
328 08-01-2021 03:15:00 1.8 C 5.15 g/m*3 -1.47 C 11.3 km/h
329 08-01-2021 03:20:00 1.8 C 5.15 g/m*3 -1.09 C 9.7 km/h
330 08-01-2021 03:25:00 1.8 C 5.15 g/m*3 -1.8 C 12.9 km/h
331 08-01-2021 03:30:00 1.8 C 5.15 g/m*3 -0.65 C 8.1 km/h
332 08-01-2021 03:35:00 1.8 C 5.15 g/m*3 -0.65 C 8.1 km/h
333 08-01-2021 03:40:00 1.8 C 5.15 g/m*3 1.8 C 4.8 km/h
334 08-01-2021 03:45:00 1.8 C 5.15 g/m*3 -0.65 C 8.1 km/h
335 08-01-2021 03:50:00 1.8 C 5.15 g/m*3 -1.09 C 9.7 km/h
336 08-01-2021 03:55:00 1.8 C 5.15 g/m*3 -1.09 C 9.7 km/h
337 08-01-2021 04:00:00 1.8 C 5.15 g/m*3 1.8 C 4.8 km/h
338 08-01-2021 04:05:00 1.8 C 5.15 g/m*3 -1.47 C 11.3 km/h
339 08-01-2021 04:10:00 1.8 C 5.15 g/m*3 -0.65 C 8.1 km/h
340 08-01-2021 04:15:00 1.8 C 5.15 g/m*3 -0.1 C 6.4 km/h
341 08-01-2021 04:20:00 1.9 C 5.19 g/m*3 -1.35 C 11.3 km/h
342 08-01-2021 04:25:00 1.9 C 5.19 g/m*3 -1.35 C 11.3 km/h
343 08-01-2021 04:30:00 1.9 C 5.19 g/m*3 -0.97 C 9.7 km/h
344 08-01-2021 04:35:00 1.9 C 5.19 g/m*3 -0.54 C 8.1 km/h
345 08-01-2021 04:40:00 1.9 C 5.19 g/m*3 -0.54 C 8.1 km/h
346 08-01-2021 04:45:00 1.8 C 5.15 g/m*3 -1.09 C 9.7 km/h
347 08-01-2021 04:50:00 1.8 C 5.15 g/m*3 -0.65 C 8.1 km/h
348 08-01-2021 04:55:00 1.8 C 5.15 g/m*3 -2.11 C 14.5 km/h
349 08-01-2021 05:00:00 1.8 C 5.15 g/m*3 -0.65 C 8.1 km/h
350 08-01-2021 05:05:00 1.8 C 5.15 g/m*3 -1.47 C 11.3 km/h
Sensor: Nr:Datum:Temp:Abs-Feuchte:Windchill:Wind:
Aussen-T/F 351 08-01-2021 05:10:00 1.8 C 5.15 g/m*3 -0.65 C 8.1 km/h
352 08-01-2021 05:15:00 1.8 C 5.21 g/m*3 -1.09 C 9.7 km/h
353 08-01-2021 05:20:00 1.8 C 5.21 g/m*3 -0.65 C 8.1 km/h
354 08-01-2021 05:25:00 1.8 C 5.21 g/m*3 -0.1 C 6.4 km/h
355 08-01-2021 05:30:00 1.9 C 5.24 g/m*3 -0.54 C 8.1 km/h
356 08-01-2021 05:35:00 1.9 C 5.24 g/m*3 -0.54 C 8.1 km/h
357 08-01-2021 05:40:00 1.9 C 5.24 g/m*3 -0.97 C 9.7 km/h
358 08-01-2021 05:45:00 1.9 C 5.24 g/m*3 -0.54 C 8.1 km/h
359 08-01-2021 05:50:00 1.9 C 5.24 g/m*3 -0.97 C 9.7 km/h
360 08-01-2021 05:55:00 1.8 C 5.21 g/m*3 -1.09 C 9.7 km/h
361 08-01-2021 06:00:00 1.8 C 5.21 g/m*3 -1.09 C 9.7 km/h
362 08-01-2021 06:05:00 1.8 C 5.21 g/m*3 -0.1 C 6.4 km/h
363 08-01-2021 06:10:00 1.8 C 5.21 g/m*3 -0.1 C 6.4 km/h
364 08-01-2021 06:15:00 1.8 C 5.21 g/m*3 -0.1 C 6.4 km/h
365 08-01-2021 06:20:00 1.8 C 5.21 g/m*3 -0.65 C 8.1 km/h
366 08-01-2021 06:25:00 1.8 C 5.21 g/m*3 -0.1 C 6.4 km/h
367 08-01-2021 06:30:00 1.8 C 5.21 g/m*3 -1.09 C 9.7 km/h
368 08-01-2021 06:35:00 1.8 C 5.21 g/m*3 -0.1 C 6.4 km/h
369 08-01-2021 06:40:00 1.7 C 5.17 g/m*3 -0.22 C 6.4 km/h
370 08-01-2021 06:45:00 1.8 C 5.21 g/m*3 -0.1 C 6.4 km/h
371 08-01-2021 06:50:00 1.8 C 5.21 g/m*3 1.8 C 4.8 km/h
372 08-01-2021 06:55:00 1.8 C 5.21 g/m*3 1.8 C 3.2 km/h
373 08-01-2021 07:00:00 1.8 C 5.21 g/m*3 1.8 C 1.6 km/h
374 08-01-2021 07:05:00 1.8 C 5.21 g/m*3 1.8 C 4.8 km/h
375 08-01-2021 07:10:00 1.7 C 5.17 g/m*3 1.7 C 4.8 km/h
Sensor: Nr:Datum:Temp:Abs-Feuchte:Windchill:Wind:
Aussen-T/F 376 08-01-2021 07:15:00 1.7 C 5.17 g/m*3 -0.77 C 8.1 km/h
377 08-01-2021 07:20:00 1.7 C 5.17 g/m*3 1.7 C 3.2 km/h
378 08-01-2021 07:25:00 1.7 C 5.17 g/m*3 1.7 C 4.8 km/h
379 08-01-2021 07:30:00 1.7 C 5.17 g/m*3 1.7 C 4.8 km/h
380 08-01-2021 07:35:00 1.7 C 5.17 g/m*3 -0.22 C 6.4 km/h
381 08-01-2021 07:40:00 1.7 C 5.17 g/m*3 1.7 C 4.8 km/h
382 08-01-2021 07:45:00 1.7 C 5.17 g/m*3 1.7 C 4.8 km/h
383 08-01-2021 07:50:00 1.7 C 5.23 g/m*3 1.7 C 3.2 km/h
384 08-01-2021 07:55:00 1.7 C 5.23 g/m*3 1.7 C 3.2 km/h
385 08-01-2021 08:00:00 1.6 C 5.19 g/m*3 1.6 C 4.8 km/h
386 08-01-2021 08:05:00 1.6 C 5.19 g/m*3 -0.89 C 8.1 km/h
387 08-01-2021 08:10:00 1.6 C 5.19 g/m*3 -0.33 C 6.4 km/h
388 08-01-2021 08:15:00 1.6 C 5.19 g/m*3 1.6 C 4.8 km/h
389 08-01-2021 08:20:00 1.6 C 5.19 g/m*3 1.6 C 4.8 km/h
390 08-01-2021 08:25:00 1.6 C 5.19 g/m*3 1.6 C 4.8 km/h
391 08-01-2021 08:30:00 1.6 C 5.19 g/m*3 1.6 C 4.8 km/h
392 08-01-2021 08:35:00 1.6 C 5.19 g/m*3 1.6 C 3.2 km/h
393 08-01-2021 08:40:00 1.6 C 5.19 g/m*3 1.6 C 3.2 km/h
394 08-01-2021 08:45:00 1.6 C 5.19 g/m*3 -0.33 C 6.4 km/h
395 08-01-2021 08:50:00 1.6 C 5.19 g/m*3 1.6 C 3.2 km/h
396 08-01-2021 08:55:00 1.6 C 5.19 g/m*3 1.6 C 4.8 km/h
397 08-01-2021 09:00:00 1.6 C 5.19 g/m*3 1.6 C 4.8 km/h
398 08-01-2021 09:05:00 1.6 C 5.19 g/m*3 -0.33 C 6.4 km/h
399 08-01-2021 09:10:00 1.6 C 5.19 g/m*3 1.6 C 4.8 km/h
400 08-01-2021 09:15:00 1.6 C 5.19 g/m*3 1.6 C 3.2 km/h
Sensor: Nr:Datum:Temp:Abs-Feuchte:Windchill:Wind:
Aussen-T/F 401 08-01-2021 09:20:00 1.6 C 5.19 g/m*3 -0.33 C 6.4 km/h
402 08-01-2021 09:25:00 1.6 C 5.19 g/m*3 -0.33 C 6.4 km/h
403 08-01-2021 09:30:00 1.6 C 5.19 g/m*3 1.6 C 4.8 km/h
404 08-01-2021 09:35:00 1.6 C 5.19 g/m*3 1.6 C 3.2 km/h
405 08-01-2021 09:40:00 1.7 C 5.23 g/m*3 1.7 C 3.2 km/h
406 08-01-2021 09:45:00 1.7 C 5.23 g/m*3 1.7 C 3.2 km/h
407 08-01-2021 09:50:00 1.7 C 5.23 g/m*3 1.7 C 3.2 km/h
408 08-01-2021 09:55:00 1.7 C 5.23 g/m*3 1.7 C 1.6 km/h
409 08-01-2021 10:00:00 1.8 C 5.26 g/m*3 1.8 C 1.6 km/h
410 08-01-2021 10:05:00 1.8 C 5.26 g/m*3 1.8 C 0 km/h
411 08-01-2021 10:10:00 1.8 C 5.26 g/m*3 1.8 C 3.2 km/h
412 08-01-2021 10:15:00 1.8 C 5.26 g/m*3 1.8 C 3.2 km/h
413 08-01-2021 10:20:00 1.8 C 5.26 g/m*3 1.8 C 0 km/h
414 08-01-2021 10:25:00 1.8 C 5.26 g/m*3 1.8 C 0 km/h
415 08-01-2021 10:30:00 1.9 C 5.3 g/m*3 1.9 C 3.2 km/h
416 08-01-2021 10:35:00 1.9 C 5.3 g/m*3 1.9 C 3.2 km/h
417 08-01-2021 10:40:00 2 C 5.33 g/m*3 2 C 4.8 km/h
418 08-01-2021 10:45:00 2 C 5.33 g/m*3 2 C 4.8 km/h
419 08-01-2021 10:50:00 2 C 5.33 g/m*3 2 C 4.8 km/h
420 08-01-2021 10:55:00 2.1 C 5.37 g/m*3 2.1 C 3.2 km/h
421 08-01-2021 11:00:00 2.1 C 5.37 g/m*3 2.1 C 0 km/h
422 08-01-2021 11:05:00 2.1 C 5.37 g/m*3 2.1 C 3.2 km/h
423 08-01-2021 11:10:00 2.1 C 5.37 g/m*3 2.1 C 0 km/h
424 08-01-2021 11:15:00 2.2 C 5.41 g/m*3 2.2 C 0 km/h
425 08-01-2021 11:20:00 2.2 C 5.41 g/m*3 2.2 C 3.2 km/h
Sensor: Nr:Datum:Temp:Abs-Feuchte:Windchill:Wind:
Aussen-T/F 426 08-01-2021 11:25:00 2.2 C 5.41 g/m*3 2.2 C 3.2 km/h
427 08-01-2021 11:30:00 2.2 C 5.41 g/m*3 2.2 C 0 km/h
428 08-01-2021 11:35:00 2.2 C 5.41 g/m*3 2.2 C 4.8 km/h
429 08-01-2021 11:40:00 2.2 C 5.41 g/m*3 2.2 C 3.2 km/h
430 08-01-2021 11:45:00 2.3 C 5.44 g/m*3 2.3 C 4.8 km/h
431 08-01-2021 11:50:00 2.3 C 5.39 g/m*3 0.47 C 6.4 km/h
432 08-01-2021 11:55:00 2.3 C 5.39 g/m*3 2.3 C 3.2 km/h
433 08-01-2021 12:00:00 2.4 C 5.42 g/m*3 2.4 C 4.8 km/h
434 08-01-2021 12:05:00 2.4 C 5.42 g/m*3 0.59 C 6.4 km/h
435 08-01-2021 12:10:00 2.4 C 5.42 g/m*3 2.4 C 3.2 km/h
436 08-01-2021 12:15:00 2.5 C 5.46 g/m*3 2.5 C 4.8 km/h
437 08-01-2021 12:20:00 2.5 C 5.46 g/m*3 2.5 C 1.6 km/h
438 08-01-2021 12:25:00 2.6 C 5.56 g/m*3 2.6 C 1.6 km/h
439 08-01-2021 12:30:00 2.6 C 5.5 g/m*3 2.6 C 1.6 km/h
440 08-01-2021 12:35:00 2.6 C 5.5 g/m*3 2.6 C 3.2 km/h
441 08-01-2021 12:40:00 2.6 C 5.5 g/m*3 2.6 C 3.2 km/h
442 08-01-2021 12:45:00 2.6 C 5.5 g/m*3 2.6 C 0 km/h
443 08-01-2021 12:50:00 2.6 C 5.5 g/m*3 2.6 C 1.6 km/h
444 08-01-2021 12:55:00 2.5 C 5.46 g/m*3 2.5 C 0 km/h
445 08-01-2021 13:00:00 2.5 C 5.46 g/m*3 2.5 C 1.6 km/h
446 08-01-2021 13:05:00 2.6 C 5.5 g/m*3 2.6 C 0 km/h
447 08-01-2021 13:10:00 2.6 C 5.5 g/m*3 2.6 C 0 km/h
448 08-01-2021 13:15:00 2.5 C 5.46 g/m*3 2.5 C 0 km/h
449 08-01-2021 13:20:00 2.5 C 5.46 g/m*3 2.5 C 0 km/h
450 08-01-2021 13:25:00 2.5 C 5.46 g/m*3 2.5 C 1.6 km/h
Sensor: Nr:Datum:Temp:Abs-Feuchte:Windchill:Wind:
Aussen-T/F 451 08-01-2021 13:30:00 2.5 C 5.46 g/m*3 2.5 C 0 km/h
452 08-01-2021 13:35:00 2.5 C 5.46 g/m*3 2.5 C 0 km/h
453 08-01-2021 13:40:00 2.5 C 5.46 g/m*3 2.5 C 1.6 km/h
454 08-01-2021 13:45:00 2.4 C 5.42 g/m*3 2.4 C 0 km/h
455 08-01-2021 13:50:00 2.5 C 5.46 g/m*3 2.5 C 1.6 km/h
456 08-01-2021 13:55:00 2.5 C 5.46 g/m*3 2.5 C 0 km/h
457 08-01-2021 14:00:00 2.6 C 5.5 g/m*3 2.6 C 3.2 km/h
458 08-01-2021 14:05:00 2.6 C 5.5 g/m*3 2.6 C 3.2 km/h
459 08-01-2021 14:10:00 2.5 C 5.46 g/m*3 2.5 C 4.8 km/h
460 08-01-2021 14:15:00 2.5 C 5.46 g/m*3 2.5 C 4.8 km/h
461 08-01-2021 14:20:00 2.5 C 5.46 g/m*3 2.5 C 1.6 km/h
462 08-01-2021 14:25:00 2.5 C 5.46 g/m*3 2.5 C 0 km/h
463 08-01-2021 14:30:00 2.5 C 5.46 g/m*3 2.5 C 1.6 km/h
464 08-01-2021 14:35:00 2.6 C 5.5 g/m*3 2.6 C 1.6 km/h
465 08-01-2021 14:40:00 2.6 C 5.5 g/m*3 2.6 C 0 km/h
466 08-01-2021 14:45:00 2.6 C 5.5 g/m*3 2.6 C 3.2 km/h
467 08-01-2021 14:50:00 2.5 C 5.4 g/m*3 2.5 C 3.2 km/h
468 08-01-2021 14:55:00 2.5 C 5.4 g/m*3 2.5 C 3.2 km/h
469 08-01-2021 15:00:00 2.6 C 5.5 g/m*3 2.6 C 0 km/h
470 08-01-2021 15:05:00 2.6 C 5.5 g/m*3 2.6 C 4.8 km/h
471 08-01-2021 15:10:00 2.5 C 5.4 g/m*3 2.5 C 4.8 km/h
472 08-01-2021 15:15:00 2.5 C 5.4 g/m*3 2.5 C 4.8 km/h
473 08-01-2021 15:20:00 2.5 C 5.4 g/m*3 2.5 C 4.8 km/h
474 08-01-2021 15:25:00 2.5 C 5.46 g/m*3 2.5 C 3.2 km/h
475 08-01-2021 15:30:00 2.5 C 5.4 g/m*3 2.5 C 3.2 km/h
Sensor: Nr:Datum:Temp:Abs-Feuchte:Windchill:Wind:
Aussen-T/F 476 08-01-2021 15:35:00 2.4 C 5.37 g/m*3 2.4 C 1.6 km/h
477 08-01-2021 15:40:00 2.4 C 5.37 g/m*3 2.4 C 0 km/h
478 08-01-2021 15:45:00 2.4 C 5.37 g/m*3 2.4 C 0 km/h
479 08-01-2021 15:50:00 2.4 C 5.37 g/m*3 2.4 C 0 km/h
480 08-01-2021 15:55:00 2.4 C 5.37 g/m*3 2.4 C 0 km/h
481 08-01-2021 16:00:00 2.4 C 5.37 g/m*3 2.4 C 1.6 km/h
482 08-01-2021 16:05:00 2.4 C 5.37 g/m*3 2.4 C 3.2 km/h
483 08-01-2021 16:10:00 2.4 C 5.37 g/m*3 2.4 C 1.6 km/h
484 08-01-2021 16:15:00 2.4 C 5.37 g/m*3 2.4 C 0 km/h
485 08-01-2021 16:20:00 2.4 C 5.37 g/m*3 2.4 C 3.2 km/h
486 08-01-2021 16:25:00 2.3 C 5.33 g/m*3 2.3 C 0 km/h
487 08-01-2021 16:30:00 2.3 C 5.33 g/m*3 2.3 C 0 km/h
488 08-01-2021 16:35:00 2.3 C 5.33 g/m*3 2.3 C 0 km/h
489 08-01-2021 16:40:00 2.3 C 5.33 g/m*3 2.3 C 3.2 km/h
490 08-01-2021 16:45:00 2.3 C 5.39 g/m*3 2.3 C 4.8 km/h
491 08-01-2021 16:50:00 2.3 C 5.39 g/m*3 2.3 C 3.2 km/h
492 08-01-2021 16:55:00 2.2 C 5.35 g/m*3 2.2 C 1.6 km/h
493 08-01-2021 17:00:00 2.2 C 5.35 g/m*3 2.2 C 0 km/h
494 08-01-2021 17:05:00 2.2 C 5.35 g/m*3 2.2 C 0 km/h
495 08-01-2021 17:10:00 2.2 C 5.35 g/m*3 2.2 C 1.6 km/h
496 08-01-2021 17:15:00 2.2 C 5.35 g/m*3 2.2 C 3.2 km/h
497 08-01-2021 17:20:00 2.2 C 5.35 g/m*3 2.2 C 0 km/h
498 08-01-2021 17:25:00 2.1 C 5.31 g/m*3 2.1 C 0 km/h
499 08-01-2021 17:30:00 2.1 C 5.31 g/m*3 2.1 C 0 km/h
500 08-01-2021 17:35:00 2.1 C 5.31 g/m*3 2.1 C 3.2 km/h
Sensor: Nr:Datum:Temp:Abs-Feuchte:Windchill:Wind:
Aussen-T/F 501 08-01-2021 17:40:00 2.1 C 5.31 g/m*3 2.1 C 0 km/h
502 08-01-2021 17:45:00 2.1 C 5.31 g/m*3 2.1 C 1.6 km/h
503 08-01-2021 17:50:00 2.1 C 5.31 g/m*3 2.1 C 0 km/h
504 08-01-2021 17:55:00 2.1 C 5.31 g/m*3 2.1 C 0 km/h
505 08-01-2021 18:00:00 2.1 C 5.31 g/m*3 2.1 C 1.6 km/h
506 08-01-2021 18:05:00 2.1 C 5.31 g/m*3 2.1 C 1.6 km/h
507 08-01-2021 18:10:00 2.1 C 5.31 g/m*3 2.1 C 0 km/h
508 08-01-2021 18:15:00 2.1 C 5.37 g/m*3 2.1 C 0 km/h
509 08-01-2021 18:20:00 2.1 C 5.37 g/m*3 2.1 C 0 km/h
510 08-01-2021 18:25:00 2.1 C 5.37 g/m*3 2.1 C 4.8 km/h
511 08-01-2021 18:30:00 2.1 C 5.31 g/m*3 2.1 C 4.8 km/h
512 08-01-2021 18:35:00 2.1 C 5.31 g/m*3 2.1 C 0 km/h
513 08-01-2021 18:40:00 2.1 C 5.31 g/m*3 2.1 C 0 km/h
514 08-01-2021 18:45:00 2.1 C 5.31 g/m*3 2.1 C 0 km/h
515 08-01-2021 18:50:00 2.1 C 5.37 g/m*3 2.1 C 0 km/h
516 08-01-2021 18:55:00 2.1 C 5.37 g/m*3 2.1 C 0 km/h
517 08-01-2021 19:00:00 2.1 C 5.37 g/m*3 2.1 C 0 km/h
518 08-01-2021 19:05:00 2.1 C 5.37 g/m*3 2.1 C 0 km/h
519 08-01-2021 19:10:00 2.1 C 5.37 g/m*3 2.1 C 0 km/h
520 08-01-2021 19:15:00 2.1 C 5.37 g/m*3 2.1 C 0 km/h
521 08-01-2021 19:20:00 2.1 C 5.37 g/m*3 2.1 C 0 km/h
522 08-01-2021 19:25:00 2.2 C 5.41 g/m*3 2.2 C 0 km/h
523 08-01-2021 19:30:00 2.2 C 5.41 g/m*3 2.2 C 0 km/h
524 08-01-2021 19:35:00 2.2 C 5.41 g/m*3 2.2 C 0 km/h
525 08-01-2021 19:40:00 2.2 C 5.41 g/m*3 2.2 C 0 km/h
Sensor: Nr:Datum:Temp:Abs-Feuchte:Windchill:Wind:
Aussen-T/F 526 08-01-2021 19:45:00 2.2 C 5.41 g/m*3 2.2 C 0 km/h
527 08-01-2021 19:50:00 2.2 C 5.41 g/m*3 2.2 C 0 km/h
528 08-01-2021 19:55:00 2.2 C 5.41 g/m*3 2.2 C 0 km/h
529 08-01-2021 20:00:00 2.2 C 5.41 g/m*3 2.2 C 0 km/h
530 08-01-2021 20:05:00 2.2 C 5.41 g/m*3 2.2 C 0 km/h
531 08-01-2021 20:10:00 2.2 C 5.41 g/m*3 2.2 C 0 km/h
532 08-01-2021 20:15:00 2.2 C 5.41 g/m*3 2.2 C 0 km/h
533 08-01-2021 20:20:00 2.2 C 5.41 g/m*3 2.2 C 0 km/h
534 08-01-2021 20:25:00 2.2 C 5.41 g/m*3 2.2 C 0 km/h
535 08-01-2021 20:30:00 2.2 C 5.41 g/m*3 2.2 C 0 km/h
536 08-01-2021 20:35:00 2.1 C 5.37 g/m*3 2.1 C 0 km/h
537 08-01-2021 20:40:00 2.1 C 5.37 g/m*3 2.1 C 0 km/h
538 08-01-2021 20:45:00 2.1 C 5.37 g/m*3 2.1 C 0 km/h
539 08-01-2021 20:50:00 2.1 C 5.37 g/m*3 2.1 C 0 km/h
540 08-01-2021 20:55:00 2.1 C 5.37 g/m*3 2.1 C 0 km/h
541 08-01-2021 21:00:00 2.1 C 5.37 g/m*3 2.1 C 0 km/h
542 08-01-2021 21:05:00 2.1 C 5.37 g/m*3 2.1 C 0 km/h
543 08-01-2021 21:10:00 2.1 C 5.37 g/m*3 2.1 C 0 km/h
544 08-01-2021 21:15:00 2.1 C 5.37 g/m*3 2.1 C 4.8 km/h
545 08-01-2021 21:20:00 2.1 C 5.37 g/m*3 2.1 C 3.2 km/h
546 08-01-2021 21:25:00 2.1 C 5.37 g/m*3 2.1 C 3.2 km/h
547 08-01-2021 21:30:00 2.1 C 5.37 g/m*3 2.1 C 3.2 km/h
548 08-01-2021 21:35:00 2.1 C 5.37 g/m*3 2.1 C 0 km/h
549 08-01-2021 21:40:00 2.1 C 5.37 g/m*3 2.1 C 0 km/h
550 08-01-2021 21:45:00 2.1 C 5.37 g/m*3 2.1 C 3.2 km/h
Sensor: Nr:Datum:Temp:Abs-Feuchte:Windchill:Wind:
Aussen-T/F 551 08-01-2021 21:50:00 2 C 5.33 g/m*3 2 C 0 km/h
552 08-01-2021 21:55:00 2 C 5.33 g/m*3 2 C 3.2 km/h
553 08-01-2021 22:00:00 2 C 5.33 g/m*3 2 C 0 km/h
554 08-01-2021 22:05:00 2 C 5.33 g/m*3 2 C 4.8 km/h
555 08-01-2021 22:10:00 1.9 C 5.3 g/m*3 1.9 C 4.8 km/h
556 08-01-2021 22:15:00 2 C 5.33 g/m*3 2 C 1.6 km/h
557 08-01-2021 22:20:00 1.9 C 5.3 g/m*3 1.9 C 3.2 km/h
558 08-01-2021 22:25:00 1.8 C 5.21 g/m*3 1.8 C 0 km/h
559 08-01-2021 22:30:00 1.6 C 5.14 g/m*3 1.6 C 0 km/h
560 08-01-2021 22:35:00 1.4 C 5.07 g/m*3 1.4 C 0 km/h
561 08-01-2021 22:40:00 1.3 C 5.03 g/m*3 1.3 C 3.2 km/h
562 08-01-2021 22:45:00 1.3 C 5.03 g/m*3 1.3 C 3.2 km/h
563 08-01-2021 22:50:00 1.3 C 5.09 g/m*3 1.3 C 1.6 km/h
564 08-01-2021 22:55:00 1.2 C 5 g/m*3 1.2 C 0 km/h
565 08-01-2021 23:00:00 1.1 C 4.96 g/m*3 1.1 C 0 km/h
566 08-01-2021 23:05:00 0.9 C 4.9 g/m*3 0.9 C 3.2 km/h
567 08-01-2021 23:10:00 0.8 C 4.86 g/m*3 0.8 C 1.6 km/h
568 08-01-2021 23:15:00 0.7 C 4.83 g/m*3 0.7 C 0 km/h
569 08-01-2021 23:20:00 0.8 C 4.86 g/m*3 0.8 C 0 km/h
570 08-01-2021 23:25:00 0.8 C 4.91 g/m*3 0.8 C 1.6 km/h
571 08-01-2021 23:30:00 0.8 C 4.91 g/m*3 0.8 C 1.6 km/h
572 08-01-2021 23:35:00 0.9 C 4.95 g/m*3 0.9 C 0 km/h
573 08-01-2021 23:40:00 0.9 C 4.95 g/m*3 0.9 C 0 km/h
574 08-01-2021 23:45:00 0.8 C 4.86 g/m*3 0.8 C 0 km/h
575 08-01-2021 23:50:00 0.7 C 4.88 g/m*3 0.7 C 0 km/h
Sensor: Nr:Datum:Temp:Abs-Feuchte:Windchill:Wind:
Aussen-T/F 576 08-01-2021 23:55:00 0.6 C 4.85 g/m*3 0.6 C 0 km/h
577 09-01-2021 00:00:00 0.6 C 4.85 g/m*3 0.6 C 0 km/h
578 09-01-2021 00:05:00 0.7 C 4.88 g/m*3 0.7 C 3.2 km/h
579 09-01-2021 00:10:00 0.7 C 4.88 g/m*3 0.7 C 3.2 km/h
580 09-01-2021 00:15:00 0.7 C 4.88 g/m*3 0.7 C 0 km/h
581 09-01-2021 00:20:00 0.7 C 4.88 g/m*3 0.7 C 1.6 km/h
582 09-01-2021 00:25:00 0.7 C 4.88 g/m*3 0.7 C 0 km/h
583 09-01-2021 00:30:00 0.7 C 4.88 g/m*3 0.7 C 0 km/h
584 09-01-2021 00:35:00 0.7 C 4.88 g/m*3 0.7 C 3.2 km/h
585 09-01-2021 00:40:00 0.7 C 4.88 g/m*3 0.7 C 0 km/h
586 09-01-2021 00:45:00 0.7 C 4.88 g/m*3 0.7 C 3.2 km/h
587 09-01-2021 00:50:00 0.7 C 4.88 g/m*3 0.7 C 3.2 km/h
588 09-01-2021 00:55:00 0.7 C 4.88 g/m*3 0.7 C 4.8 km/h
589 09-01-2021 01:00:00 0.7 C 4.88 g/m*3 0.7 C 0 km/h
590 09-01-2021 01:05:00 0.7 C 4.88 g/m*3 0.7 C 3.2 km/h
591 09-01-2021 01:10:00 0.8 C 4.91 g/m*3 0.8 C 0 km/h
592 09-01-2021 01:15:00 0.8 C 4.91 g/m*3 0.8 C 0 km/h
593 09-01-2021 01:20:00 0.9 C 4.95 g/m*3 0.9 C 3.2 km/h
594 09-01-2021 01:25:00 0.9 C 4.95 g/m*3 0.9 C 0 km/h
595 09-01-2021 01:30:00 1 C 4.98 g/m*3 1 C 1.6 km/h
596 09-01-2021 01:35:00 1 C 4.98 g/m*3 1 C 1.6 km/h
597 09-01-2021 01:40:00 1 C 4.98 g/m*3 1 C 0 km/h
598 09-01-2021 01:45:00 1 C 4.98 g/m*3 1 C 0 km/h
599 09-01-2021 01:50:00 1 C 4.98 g/m*3 1 C 0 km/h
600 09-01-2021 01:55:00 0.9 C 4.95 g/m*3 0.9 C 0 km/h
Sensor: Nr:Datum:Temp:Abs-Feuchte:Windchill:Wind:
Aussen-T/F 601 09-01-2021 02:00:00 0.9 C 4.95 g/m*3 0.9 C 0 km/h
602 09-01-2021 02:05:00 0.9 C 4.95 g/m*3 0.9 C 0 km/h
603 09-01-2021 02:10:00 0.9 C 4.95 g/m*3 0.9 C 0 km/h
604 09-01-2021 02:15:00 0.9 C 4.95 g/m*3 0.9 C 0 km/h
605 09-01-2021 02:20:00 1 C 4.98 g/m*3 1 C 0 km/h
606 09-01-2021 02:25:00 1 C 4.98 g/m*3 1 C 0 km/h
607 09-01-2021 02:30:00 1 C 4.98 g/m*3 1 C 0 km/h
608 09-01-2021 02:35:00 1 C 4.98 g/m*3 1 C 0 km/h
609 09-01-2021 02:40:00 1.1 C 5.02 g/m*3 1.1 C 0 km/h
610 09-01-2021 02:45:00 1.1 C 5.02 g/m*3 1.1 C 0 km/h
611 09-01-2021 02:50:00 1.1 C 5.02 g/m*3 1.1 C 0 km/h
612 09-01-2021 02:55:00 1.1 C 5.02 g/m*3 1.1 C 1.6 km/h
613 09-01-2021 03:00:00 1.1 C 5.02 g/m*3 1.1 C 0 km/h
614 09-01-2021 03:05:00 1.1 C 5.02 g/m*3 1.1 C 0 km/h
615 09-01-2021 03:10:00 1.1 C 5.02 g/m*3 1.1 C 0 km/h
616 09-01-2021 03:15:00 1.1 C 5.02 g/m*3 1.1 C 1.6 km/h
617 09-01-2021 03:20:00 1.1 C 5.07 g/m*3 1.1 C 0 km/h
618 09-01-2021 03:25:00 1.2 C 5.05 g/m*3 1.2 C 0 km/h
619 09-01-2021 03:30:00 1.2 C 5.05 g/m*3 1.2 C 0 km/h
620 09-01-2021 03:35:00 1.2 C 5.05 g/m*3 1.2 C 0 km/h
621 09-01-2021 03:40:00 1.2 C 5.05 g/m*3 1.2 C 0 km/h
622 09-01-2021 03:45:00 1.1 C 5.02 g/m*3 1.1 C 3.2 km/h
623 09-01-2021 03:50:00 1 C 4.98 g/m*3 1 C 1.6 km/h
624 09-01-2021 03:55:00 0.9 C 4.95 g/m*3 0.9 C 1.6 km/h
625 09-01-2021 04:00:00 0.8 C 4.91 g/m*3 0.8 C 3.2 km/h
Sensor: Nr:Datum:Temp:Abs-Feuchte:Windchill:Wind:
Aussen-T/F 626 09-01-2021 04:05:00 0.8 C 4.91 g/m*3 0.8 C 3.2 km/h
627 09-01-2021 04:10:00 0.8 C 4.91 g/m*3 0.8 C 3.2 km/h
628 09-01-2021 04:15:00 0.8 C 4.91 g/m*3 0.8 C 1.6 km/h
629 09-01-2021 04:20:00 0.8 C 4.91 g/m*3 0.8 C 0 km/h
630 09-01-2021 04:25:00 0.8 C 4.91 g/m*3 0.8 C 0 km/h
631 09-01-2021 04:30:00 0.9 C 4.95 g/m*3 0.9 C 0 km/h
632 09-01-2021 04:35:00 0.9 C 5 g/m*3 0.9 C 0 km/h
633 09-01-2021 04:40:00 0.9 C 5 g/m*3 0.9 C 0 km/h
634 09-01-2021 04:45:00 0.9 C 5 g/m*3 0.9 C 0 km/h
635 09-01-2021 04:50:00 0.9 C 5 g/m*3 0.9 C 0 km/h
636 09-01-2021 04:55:00 0.9 C 5 g/m*3 0.9 C 0 km/h
637 09-01-2021 05:00:00 0.9 C 5 g/m*3 0.9 C 0 km/h
638 09-01-2021 05:05:00 0.9 C 5 g/m*3 0.9 C 0 km/h
639 09-01-2021 05:10:00 0.9 C 5 g/m*3 0.9 C 0 km/h
640 09-01-2021 05:15:00 0.9 C 5 g/m*3 0.9 C 0 km/h
641 09-01-2021 05:20:00 0.9 C 5 g/m*3 0.9 C 0 km/h
642 09-01-2021 05:25:00 0.9 C 5 g/m*3 0.9 C 0 km/h
643 09-01-2021 05:30:00 0.9 C 5 g/m*3 0.9 C 0 km/h
644 09-01-2021 05:35:00 0.9 C 5 g/m*3 0.9 C 0 km/h
645 09-01-2021 05:40:00 0.9 C 5 g/m*3 0.9 C 0 km/h
646 09-01-2021 05:45:00 0.9 C 5 g/m*3 0.9 C 3.2 km/h
647 09-01-2021 05:50:00 0.9 C 5 g/m*3 0.9 C 0 km/h
648 09-01-2021 05:55:00 0.9 C 4.95 g/m*3 0.9 C 0 km/h
649 09-01-2021 06:00:00 0.9 C 5 g/m*3 0.9 C 0 km/h
650 09-01-2021 06:05:00 0.9 C 5 g/m*3 0.9 C 0 km/h
Sensor: Nr:Datum:Temp:Abs-Feuchte:Windchill:Wind:
Aussen-T/F 651 09-01-2021 06:10:00 0.9 C 5 g/m*3 0.9 C 1.6 km/h
652 09-01-2021 06:15:00 0.9 C 5 g/m*3 0.9 C 0 km/h
653 09-01-2021 06:20:00 0.9 C 5 g/m*3 0.9 C 0 km/h
654 09-01-2021 06:25:00 0.9 C 5 g/m*3 0.9 C 1.6 km/h
655 09-01-2021 06:30:00 0.9 C 5 g/m*3 0.9 C 0 km/h
656 09-01-2021 06:35:00 1 C 5.03 g/m*3 1 C 0 km/h
657 09-01-2021 06:40:00 1 C 5.03 g/m*3 1 C 1.6 km/h
658 09-01-2021 06:45:00 1 C 5.03 g/m*3 1 C 1.6 km/h
659 09-01-2021 06:50:00 1 C 5.03 g/m*3 1 C 0 km/h
660 09-01-2021 06:55:00 1 C 5.03 g/m*3 1 C 1.6 km/h
661 09-01-2021 07:00:00 1 C 5.03 g/m*3 1 C 0 km/h
662 09-01-2021 07:05:00 1 C 5.03 g/m*3 1 C 0 km/h
663 09-01-2021 07:10:00 1 C 5.03 g/m*3 1 C 1.6 km/h
664 09-01-2021 07:15:00 1 C 5.03 g/m*3 1 C 3.2 km/h
665 09-01-2021 07:20:00 1 C 5.03 g/m*3 1 C 0 km/h
666 09-01-2021 07:25:00 1 C 5.03 g/m*3 1 C 1.6 km/h
667 09-01-2021 07:30:00 1 C 5.03 g/m*3 1 C 0 km/h
668 09-01-2021 07:35:00 1.1 C 5.07 g/m*3 1.1 C 0 km/h
669 09-01-2021 07:40:00 1.1 C 5.07 g/m*3 1.1 C 0 km/h
670 09-01-2021 07:45:00 1 C 5.03 g/m*3 1 C 0 km/h
671 09-01-2021 07:50:00 1.1 C 5.07 g/m*3 1.1 C 0 km/h
672 09-01-2021 07:55:00 1 C 5.03 g/m*3 1 C 0 km/h
673 09-01-2021 08:00:00 1 C 5.03 g/m*3 1 C 0 km/h
674 09-01-2021 08:05:00 1 C 5.03 g/m*3 1 C 0 km/h
675 09-01-2021 08:10:00 1 C 5.03 g/m*3 1 C 0 km/h
Sensor: Nr:Datum:Temp:Abs-Feuchte:Windchill:Wind:
Aussen-T/F 676 09-01-2021 08:15:00 1 C 5.03 g/m*3 1 C 0 km/h
677 09-01-2021 08:20:00 1.1 C 5.07 g/m*3 1.1 C 0 km/h
678 09-01-2021 08:25:00 1.1 C 5.07 g/m*3 1.1 C 0 km/h
679 09-01-2021 08:30:00 1.1 C 5.07 g/m*3 1.1 C 3.2 km/h
680 09-01-2021 08:35:00 1.1 C 5.07 g/m*3 1.1 C 0 km/h
681 09-01-2021 08:40:00 1.1 C 5.07 g/m*3 1.1 C 3.2 km/h
682 09-01-2021 08:45:00 1.1 C 5.07 g/m*3 1.1 C 3.2 km/h
683 09-01-2021 08:50:00 1.1 C 5.02 g/m*3 1.1 C 0 km/h
684 09-01-2021 08:55:00 1.1 C 5.07 g/m*3 1.1 C 0 km/h
685 09-01-2021 09:00:00 1.1 C 5.02 g/m*3 1.1 C 1.6 km/h
686 09-01-2021 09:05:00 1.1 C 5.02 g/m*3 1.1 C 1.6 km/h
687 09-01-2021 09:10:00 1.1 C 5.02 g/m*3 1.1 C 0 km/h
688 09-01-2021 09:15:00 1.1 C 5.02 g/m*3 1.1 C 0 km/h
689 09-01-2021 09:20:00 1.1 C 5.07 g/m*3 1.1 C 0 km/h
690 09-01-2021 09:25:00 1.1 C 5.02 g/m*3 1.1 C 0 km/h
691 09-01-2021 09:30:00 1.1 C 5.02 g/m*3 1.1 C 0 km/h
692 09-01-2021 09:35:00 1.1 C 5.02 g/m*3 1.1 C 0 km/h
693 09-01-2021 09:40:00 1 C 4.98 g/m*3 1 C 0 km/h
694 09-01-2021 09:45:00 0.9 C 4.95 g/m*3 0.9 C 0 km/h
695 09-01-2021 09:50:00 0.8 C 4.91 g/m*3 0.8 C 0 km/h
696 09-01-2021 09:55:00 0.7 C 4.88 g/m*3 0.7 C 0 km/h
697 09-01-2021 10:00:00 0.7 C 4.88 g/m*3 0.7 C 0 km/h
698 09-01-2021 10:05:00 0.7 C 4.88 g/m*3 0.7 C 1.6 km/h
699 09-01-2021 10:10:00 0.6 C 4.85 g/m*3 0.6 C 0 km/h
700 09-01-2021 10:15:00 0.7 C 4.88 g/m*3 0.7 C 0 km/h
Sensor: Nr:Datum:Temp:Abs-Feuchte:Windchill:Wind:
Aussen-T/F 701 09-01-2021 10:20:00 0.7 C 4.88 g/m*3 0.7 C 0 km/h
702 09-01-2021 10:25:00 0.8 C 4.91 g/m*3 0.8 C 0 km/h
703 09-01-2021 10:30:00 0.9 C 5 g/m*3 0.9 C 1.6 km/h
704 09-01-2021 10:35:00 1.1 C 5.07 g/m*3 1.1 C 1.6 km/h
705 09-01-2021 10:40:00 1.2 C 5.1 g/m*3 1.2 C 0 km/h
706 09-01-2021 10:45:00 1.2 C 5.1 g/m*3 1.2 C 0 km/h
707 09-01-2021 10:50:00 1.2 C 5.1 g/m*3 1.2 C 0 km/h
708 09-01-2021 10:55:00 1.2 C 5.1 g/m*3 1.2 C 0 km/h
709 09-01-2021 11:00:00 1.2 C 5.05 g/m*3 1.2 C 0 km/h
710 09-01-2021 11:05:00 1.2 C 5.05 g/m*3 1.2 C 0 km/h
711 09-01-2021 11:10:00 1.1 C 5.02 g/m*3 1.1 C 0 km/h
712 09-01-2021 11:15:00 1.1 C 5.02 g/m*3 1.1 C 0 km/h
713 09-01-2021 11:20:00 1 C 4.98 g/m*3 1 C 0 km/h
714 09-01-2021 11:25:00 0.9 C 4.95 g/m*3 0.9 C 0 km/h
715 09-01-2021 11:30:00 0.9 C 4.95 g/m*3 0.9 C 0 km/h
716 09-01-2021 11:35:00 0.9 C 4.95 g/m*3 0.9 C 0 km/h
717 09-01-2021 11:40:00 1.1 C 5.02 g/m*3 1.1 C 1.6 km/h
718 09-01-2021 11:45:00 1.2 C 5.1 g/m*3 1.2 C 1.6 km/h
719 09-01-2021 11:50:00 1.3 C 5.14 g/m*3 1.3 C 4.8 km/h
720 09-01-2021 11:55:00 1.4 C 5.17 g/m*3 -1.95 C 11.3 km/h
721 09-01-2021 12:00:00 1.4 C 5.12 g/m*3 -1.12 C 8.1 km/h
722 09-01-2021 12:05:00 1.4 C 5.12 g/m*3 -1.12 C 8.1 km/h
723 09-01-2021 12:10:00 1.4 C 5.07 g/m*3 1.4 C 0 km/h
724 09-01-2021 12:15:00 1.4 C 5.07 g/m*3 1.4 C 0 km/h
725 09-01-2021 12:20:00 1.3 C 5.03 g/m*3 1.3 C 3.2 km/h
Sensor: Nr:Datum:Temp:Abs-Feuchte:Windchill:Wind:
Aussen-T/F 726 09-01-2021 12:25:00 1.3 C 5.03 g/m*3 1.3 C 1.6 km/h
727 09-01-2021 12:30:00 1.2 C 5 g/m*3 1.2 C 0 km/h
728 09-01-2021 12:35:00 1.2 C 5 g/m*3 1.2 C 0 km/h
729 09-01-2021 12:40:00 1.2 C 5 g/m*3 1.2 C 0 km/h
730 09-01-2021 12:45:00 1.3 C 5.09 g/m*3 1.3 C 3.2 km/h
731 09-01-2021 12:50:00 1.4 C 5.12 g/m*3 1.4 C 0 km/h
732 09-01-2021 12:55:00 1.6 C 5.19 g/m*3 1.6 C 4.8 km/h
733 09-01-2021 13:00:00 1.7 C 5.12 g/m*3 -0.22 C 6.4 km/h
734 09-01-2021 13:05:00 1.9 C 5.13 g/m*3 -0.54 C 8.1 km/h
735 09-01-2021 13:10:00 1.9 C 5.08 g/m*3 0.01 C 6.4 km/h
736 09-01-2021 13:15:00 2 C 5.06 g/m*3 -0.85 C 9.7 km/h
737 09-01-2021 13:20:00 2.1 C 5.04 g/m*3 2.1 C 3.2 km/h
738 09-01-2021 13:25:00 2.2 C 5.07 g/m*3 2.2 C 1.6 km/h
739 09-01-2021 13:30:00 2.2 C 5.07 g/m*3 2.2 C 0 km/h
740 09-01-2021 13:35:00 2.3 C 5.1 g/m*3 2.3 C 0 km/h
741 09-01-2021 13:40:00 2.3 C 5.1 g/m*3 2.3 C 1.6 km/h
742 09-01-2021 13:45:00 2.3 C 5.05 g/m*3 2.3 C 3.2 km/h
743 09-01-2021 13:50:00 2.4 C 5.14 g/m*3 2.4 C 0 km/h
744 09-01-2021 13:55:00 2.6 C 5.21 g/m*3 2.6 C 0 km/h
745 09-01-2021 14:00:00 2.7 C 5.19 g/m*3 2.7 C 1.6 km/h
746 09-01-2021 14:05:00 2.7 C 5.19 g/m*3 0.94 C 6.4 km/h
747 09-01-2021 14:10:00 2.8 C 5.16 g/m*3 2.8 C 1.6 km/h
748 09-01-2021 14:15:00 2.8 C 5.16 g/m*3 2.8 C 3.2 km/h
749 09-01-2021 14:20:00 2.9 C 5.14 g/m*3 2.9 C 4.8 km/h
750 09-01-2021 14:25:00 2.9 C 5.14 g/m*3 2.9 C 4.8 km/h
Sensor: Nr:Datum:Temp:Abs-Feuchte:Windchill:Wind:
Aussen-T/F 751 09-01-2021 14:30:00 2.9 C 5.14 g/m*3 2.9 C 0 km/h
752 09-01-2021 14:35:00 2.9 C 5.14 g/m*3 2.9 C 0 km/h
753 09-01-2021 14:40:00 3 C 5.17 g/m*3 3 C 1.6 km/h
754 09-01-2021 14:45:00 3 C 5.11 g/m*3 1.28 C 6.4 km/h
755 09-01-2021 14:50:00 3 C 5.11 g/m*3 3 C 4.8 km/h
756 09-01-2021 14:55:00 2.9 C 5.02 g/m*3 2.9 C 3.2 km/h
757 09-01-2021 15:00:00 2.9 C 5.02 g/m*3 2.9 C 4.8 km/h
758 09-01-2021 15:05:00 2.9 C 4.96 g/m*3 2.9 C 1.6 km/h
759 09-01-2021 15:10:00 2.9 C 5.02 g/m*3 2.9 C 1.6 km/h
760 09-01-2021 15:15:00 3 C 5.05 g/m*3 3 C 3.2 km/h
761 09-01-2021 15:20:00 3 C 5.05 g/m*3 3 C 4.8 km/h
762 09-01-2021 15:25:00 3.1 C 5.15 g/m*3 3.1 C 3.2 km/h
763 09-01-2021 15:30:00 3.1 C 5.15 g/m*3 3.1 C 3.2 km/h
764 09-01-2021 15:35:00 3 C 5.05 g/m*3 1.28 C 6.4 km/h
765 09-01-2021 15:40:00 2.9 C 5.02 g/m*3 2.9 C 4.8 km/h
766 09-01-2021 15:45:00 2.8 C 4.99 g/m*3 2.8 C 4.8 km/h
767 09-01-2021 15:50:00 2.8 C 4.99 g/m*3 1.05 C 6.4 km/h
768 09-01-2021 15:55:00 2.7 C 4.95 g/m*3 2.7 C 4.8 km/h
769 09-01-2021 16:00:00 2.7 C 5.01 g/m*3 2.7 C 3.2 km/h
770 09-01-2021 16:05:00 2.7 C 5.01 g/m*3 2.7 C 4.8 km/h
771 09-01-2021 16:10:00 2.7 C 5.07 g/m*3 2.7 C 3.2 km/h
772 09-01-2021 16:15:00 2.6 C 5.03 g/m*3 2.6 C 3.2 km/h
773 09-01-2021 16:20:00 2.6 C 5.03 g/m*3 2.6 C 0 km/h
774 09-01-2021 16:25:00 2.6 C 5.09 g/m*3 2.6 C 0 km/h
775 09-01-2021 16:30:00 2.6 C 5.09 g/m*3 2.6 C 0 km/h
Sensor: Nr:Datum:Temp:Abs-Feuchte:Windchill:Wind:
Aussen-T/F 776 09-01-2021 16:35:00 2.5 C 5.12 g/m*3 2.5 C 0 km/h
777 09-01-2021 16:40:00 2.4 C 5.08 g/m*3 2.4 C 0 km/h
778 09-01-2021 16:45:00 2.3 C 5.05 g/m*3 2.3 C 1.6 km/h
779 09-01-2021 16:50:00 2.2 C 5.01 g/m*3 2.2 C 0 km/h
780 09-01-2021 16:55:00 2.1 C 5.04 g/m*3 2.1 C 0 km/h
781 09-01-2021 17:00:00 2.1 C 5.04 g/m*3 2.1 C 1.6 km/h
782 09-01-2021 17:05:00 1.9 C 4.97 g/m*3 1.9 C 1.6 km/h
783 09-01-2021 17:10:00 1.8 C 4.93 g/m*3 1.8 C 1.6 km/h
784 09-01-2021 17:15:00 1.8 C 4.93 g/m*3 1.8 C 0 km/h
785 09-01-2021 17:20:00 1.7 C 4.95 g/m*3 1.7 C 0 km/h
786 09-01-2021 17:25:00 1.6 C 4.92 g/m*3 1.6 C 0 km/h
787 09-01-2021 17:30:00 1.6 C 4.92 g/m*3 1.6 C 0 km/h
788 09-01-2021 17:35:00 1.6 C 4.92 g/m*3 1.6 C 0 km/h
789 09-01-2021 17:40:00 1.5 C 4.89 g/m*3 1.5 C 0 km/h
790 09-01-2021 17:45:00 1.4 C 4.85 g/m*3 1.4 C 0 km/h
791 09-01-2021 17:50:00 1.4 C 4.91 g/m*3 1.4 C 0 km/h
792 09-01-2021 17:55:00 1.3 C 4.87 g/m*3 1.3 C 0 km/h
793 09-01-2021 18:00:00 1.3 C 4.87 g/m*3 1.3 C 0 km/h
794 09-01-2021 18:05:00 1.3 C 4.87 g/m*3 1.3 C 0 km/h
795 09-01-2021 18:10:00 1.3 C 4.87 g/m*3 1.3 C 0 km/h
796 09-01-2021 18:15:00 1.3 C 4.93 g/m*3 1.3 C 0 km/h
797 09-01-2021 18:20:00 1.3 C 4.93 g/m*3 1.3 C 0 km/h
798 09-01-2021 18:25:00 1.3 C 4.93 g/m*3 1.3 C 0 km/h
799 09-01-2021 18:30:00 1.3 C 4.93 g/m*3 1.3 C 0 km/h
800 09-01-2021 18:35:00 1.3 C 4.93 g/m*3 1.3 C 0 km/h
Sensor: Nr:Datum:Temp:Abs-Feuchte:Windchill:Wind:
Aussen-T/F 801 09-01-2021 18:40:00 1.3 C 4.93 g/m*3 1.3 C 0 km/h
802 09-01-2021 18:45:00 1.3 C 4.93 g/m*3 1.3 C 0 km/h
803 09-01-2021 18:50:00 1.3 C 4.93 g/m*3 1.3 C 0 km/h
804 09-01-2021 18:55:00 1.3 C 4.93 g/m*3 1.3 C 0 km/h
805 09-01-2021 19:00:00 1.3 C 4.93 g/m*3 1.3 C 0 km/h
806 09-01-2021 19:05:00 1.3 C 4.93 g/m*3 1.3 C 0 km/h
807 09-01-2021 19:10:00 1.3 C 4.98 g/m*3 1.3 C 0 km/h
808 09-01-2021 19:15:00 1.3 C 4.98 g/m*3 1.3 C 0 km/h
809 09-01-2021 19:20:00 1.3 C 4.98 g/m*3 1.3 C 0 km/h
810 09-01-2021 19:25:00 1.3 C 4.98 g/m*3 1.3 C 0 km/h
811 09-01-2021 19:30:00 1.3 C 4.98 g/m*3 1.3 C 0 km/h
812 09-01-2021 19:35:00 1.3 C 4.98 g/m*3 1.3 C 0 km/h
813 09-01-2021 19:40:00 1.2 C 4.95 g/m*3 1.2 C 0 km/h
814 09-01-2021 19:45:00 1.2 C 4.95 g/m*3 1.2 C 0 km/h
815 09-01-2021 19:50:00 1.2 C 4.95 g/m*3 1.2 C 0 km/h
816 09-01-2021 19:55:00 1.2 C 4.95 g/m*3 1.2 C 0 km/h
817 09-01-2021 20:00:00 1.2 C 4.95 g/m*3 1.2 C 0 km/h
818 09-01-2021 20:05:00 1.2 C 4.95 g/m*3 1.2 C 0 km/h
819 09-01-2021 20:10:00 1.2 C 4.95 g/m*3 1.2 C 0 km/h
820 09-01-2021 20:15:00 1.2 C 4.95 g/m*3 1.2 C 0 km/h
821 09-01-2021 20:20:00 1.2 C 4.95 g/m*3 1.2 C 0 km/h
822 09-01-2021 20:25:00 1.2 C 4.95 g/m*3 1.2 C 0 km/h
823 09-01-2021 20:30:00 1.2 C 4.95 g/m*3 1.2 C 0 km/h
824 09-01-2021 20:35:00 1.1 C 4.91 g/m*3 1.1 C 0 km/h
825 09-01-2021 20:40:00 1.1 C 4.91 g/m*3 1.1 C 0 km/h
Sensor: Nr:Datum:Temp:Abs-Feuchte:Windchill:Wind:
Aussen-T/F 826 09-01-2021 20:45:00 1.1 C 4.91 g/m*3 1.1 C 0 km/h
827 09-01-2021 20:50:00 1.1 C 4.91 g/m*3 1.1 C 0 km/h
828 09-01-2021 20:55:00 1.2 C 4.95 g/m*3 1.2 C 0 km/h
829 09-01-2021 21:00:00 1.1 C 4.91 g/m*3 1.1 C 0 km/h
830 09-01-2021 21:05:00 1.1 C 4.91 g/m*3 1.1 C 0 km/h
831 09-01-2021 21:10:00 1.1 C 4.91 g/m*3 1.1 C 0 km/h
832 09-01-2021 21:15:00 1 C 4.88 g/m*3 1 C 0 km/h
833 09-01-2021 21:20:00 1.1 C 4.91 g/m*3 1.1 C 0 km/h
834 09-01-2021 21:25:00 1.1 C 4.96 g/m*3 1.1 C 0 km/h
835 09-01-2021 21:30:00 1.1 C 4.96 g/m*3 1.1 C 0 km/h
836 09-01-2021 21:35:00 1.1 C 4.96 g/m*3 1.1 C 0 km/h
837 09-01-2021 21:40:00 1.1 C 4.96 g/m*3 1.1 C 0 km/h
838 09-01-2021 21:45:00 1.1 C 4.96 g/m*3 1.1 C 0 km/h
839 09-01-2021 21:50:00 1.1 C 4.96 g/m*3 1.1 C 0 km/h
840 09-01-2021 21:55:00 1.1 C 4.96 g/m*3 1.1 C 0 km/h
841 09-01-2021 22:00:00 1.1 C 4.96 g/m*3 1.1 C 0 km/h
842 09-01-2021 22:05:00 1.1 C 4.96 g/m*3 1.1 C 0 km/h
843 09-01-2021 22:10:00 1.1 C 4.96 g/m*3 1.1 C 0 km/h
844 09-01-2021 22:15:00 1.1 C 4.96 g/m*3 1.1 C 0 km/h
845 09-01-2021 22:20:00 1.1 C 4.96 g/m*3 1.1 C 0 km/h
846 09-01-2021 22:25:00 1.2 C 5 g/m*3 1.2 C 0 km/h
847 09-01-2021 22:30:00 1.2 C 5 g/m*3 1.2 C 0 km/h
848 09-01-2021 22:35:00 1.2 C 5 g/m*3 1.2 C 0 km/h
849 09-01-2021 22:40:00 1.3 C 5.03 g/m*3 1.3 C 0 km/h
850 09-01-2021 22:45:00 1.3 C 5.03 g/m*3 1.3 C 0 km/h
Sensor: Nr:Datum:Temp:Abs-Feuchte:Windchill:Wind:
Aussen-T/F 851 09-01-2021 22:50:00 1.3 C 5.03 g/m*3 1.3 C 0 km/h
852 09-01-2021 22:55:00 1.3 C 5.03 g/m*3 1.3 C 0 km/h
853 09-01-2021 23:00:00 1.3 C 5.03 g/m*3 1.3 C 0 km/h
854 09-01-2021 23:05:00 1.4 C 5.07 g/m*3 1.4 C 0 km/h
855 09-01-2021 23:10:00 1.4 C 5.07 g/m*3 1.4 C 0 km/h
856 09-01-2021 23:15:00 1.4 C 5.07 g/m*3 1.4 C 0 km/h
857 09-01-2021 23:20:00 1.3 C 5.03 g/m*3 1.3 C 0 km/h
858 09-01-2021 23:25:00 1.3 C 5.03 g/m*3 1.3 C 0 km/h
859 09-01-2021 23:30:00 1.2 C 5 g/m*3 1.2 C 0 km/h
860 09-01-2021 23:35:00 1.2 C 5 g/m*3 1.2 C 0 km/h
861 09-01-2021 23:40:00 1.2 C 5 g/m*3 1.2 C 0 km/h
862 09-01-2021 23:45:00 1.1 C 4.96 g/m*3 1.1 C 0 km/h
863 09-01-2021 23:50:00 1.1 C 4.96 g/m*3 1.1 C 0 km/h
864 09-01-2021 23:55:00 1.1 C 4.96 g/m*3 1.1 C 0 km/h
865 10-01-2021 00:00:00 1.1 C 4.96 g/m*3 1.1 C 0 km/h
866 10-01-2021 00:05:00 1.1 C 4.96 g/m*3 1.1 C 0 km/h
867 10-01-2021 00:10:00 1.1 C 4.96 g/m*3 1.1 C 0 km/h
868 10-01-2021 00:15:00 1.1 C 4.96 g/m*3 1.1 C 0 km/h
869 10-01-2021 00:20:00 1.1 C 4.96 g/m*3 1.1 C 0 km/h
870 10-01-2021 00:25:00 1 C 4.93 g/m*3 1 C 0 km/h
871 10-01-2021 00:30:00 0.9 C 4.9 g/m*3 0.9 C 0 km/h
872 10-01-2021 00:35:00 0.9 C 4.9 g/m*3 0.9 C 0 km/h
873 10-01-2021 00:40:00 0.9 C 4.9 g/m*3 0.9 C 0 km/h
874 10-01-2021 00:45:00 0.8 C 4.86 g/m*3 0.8 C 0 km/h
875 10-01-2021 00:50:00 0.8 C 4.86 g/m*3 0.8 C 0 km/h
Sensor: Nr:Datum:Temp:Abs-Feuchte:Windchill:Wind:
Aussen-T/F 876 10-01-2021 00:55:00 0.8 C 4.86 g/m*3 0.8 C 0 km/h
877 10-01-2021 01:00:00 0.8 C 4.86 g/m*3 0.8 C 0 km/h
878 10-01-2021 01:05:00 0.8 C 4.86 g/m*3 0.8 C 0 km/h
879 10-01-2021 01:10:00 0.8 C 4.86 g/m*3 0.8 C 0 km/h
880 10-01-2021 01:15:00 0.8 C 4.86 g/m*3 0.8 C 0 km/h
881 10-01-2021 01:20:00 0.8 C 4.86 g/m*3 0.8 C 0 km/h
882 10-01-2021 01:25:00 0.8 C 4.86 g/m*3 0.8 C 0 km/h
883 10-01-2021 01:30:00 0.8 C 4.91 g/m*3 0.8 C 0 km/h
884 10-01-2021 01:35:00 0.8 C 4.91 g/m*3 0.8 C 0 km/h
885 10-01-2021 01:40:00 0.9 C 4.95 g/m*3 0.9 C 0 km/h
886 10-01-2021 01:45:00 0.9 C 4.95 g/m*3 0.9 C 0 km/h
887 10-01-2021 01:50:00 0.9 C 4.95 g/m*3 0.9 C 0 km/h
888 10-01-2021 01:55:00 0.9 C 4.95 g/m*3 0.9 C 0 km/h
889 10-01-2021 02:00:00 0.9 C 4.95 g/m*3 0.9 C 0 km/h
890 10-01-2021 02:05:00 0.9 C 4.95 g/m*3 0.9 C 0 km/h
891 10-01-2021 02:10:00 0.9 C 4.95 g/m*3 0.9 C 0 km/h
892 10-01-2021 02:15:00 0.9 C 4.95 g/m*3 0.9 C 0 km/h
893 10-01-2021 02:20:00 0.9 C 4.95 g/m*3 0.9 C 0 km/h
894 10-01-2021 02:25:00 0.9 C 4.95 g/m*3 0.9 C 0 km/h
895 10-01-2021 02:30:00 0.9 C 4.95 g/m*3 0.9 C 0 km/h
896 10-01-2021 02:35:00 0.9 C 4.95 g/m*3 0.9 C 0 km/h
897 10-01-2021 02:40:00 0.9 C 4.95 g/m*3 0.9 C 0 km/h
898 10-01-2021 02:45:00 0.9 C 4.95 g/m*3 0.9 C 0 km/h
899 10-01-2021 02:50:00 0.9 C 4.95 g/m*3 0.9 C 0 km/h
900 10-01-2021 02:55:00 0.9 C 4.95 g/m*3 0.9 C 0 km/h
Sensor: Nr:Datum:Temp:Abs-Feuchte:Windchill:Wind:
Aussen-T/F 901 10-01-2021 03:00:00 0.9 C 4.95 g/m*3 0.9 C 0 km/h
902 10-01-2021 03:05:00 0.9 C 4.95 g/m*3 0.9 C 0 km/h
903 10-01-2021 03:10:00 0.9 C 4.95 g/m*3 0.9 C 0 km/h
904 10-01-2021 03:15:00 0.9 C 4.95 g/m*3 0.9 C 0 km/h
905 10-01-2021 03:20:00 1 C 4.98 g/m*3 1 C 0 km/h
906 10-01-2021 03:25:00 1 C 4.98 g/m*3 1 C 0 km/h
907 10-01-2021 03:30:00 1 C 4.98 g/m*3 1 C 0 km/h
908 10-01-2021 03:35:00 0.9 C 4.95 g/m*3 0.9 C 0 km/h
909 10-01-2021 03:40:00 1 C 4.98 g/m*3 1 C 0 km/h
910 10-01-2021 03:45:00 1 C 4.98 g/m*3 1 C 0 km/h
911 10-01-2021 03:50:00 1 C 4.98 g/m*3 1 C 0 km/h
912 10-01-2021 03:55:00 1 C 4.98 g/m*3 1 C 0 km/h
913 10-01-2021 04:00:00 1 C 4.98 g/m*3 1 C 0 km/h
914 10-01-2021 04:05:00 1 C 4.98 g/m*3 1 C 0 km/h
915 10-01-2021 04:10:00 0.9 C 4.95 g/m*3 0.9 C 0 km/h
916 10-01-2021 04:15:00 0.9 C 4.95 g/m*3 0.9 C 0 km/h
917 10-01-2021 04:20:00 0.9 C 4.95 g/m*3 0.9 C 0 km/h
918 10-01-2021 04:25:00 0.9 C 4.95 g/m*3 0.9 C 0 km/h
919 10-01-2021 04:30:00 0.9 C 4.95 g/m*3 0.9 C 0 km/h
920 10-01-2021 04:35:00 0.9 C 4.95 g/m*3 0.9 C 0 km/h
921 10-01-2021 04:40:00 0.8 C 4.91 g/m*3 0.8 C 0 km/h
922 10-01-2021 04:45:00 0.8 C 4.91 g/m*3 0.8 C 0 km/h
923 10-01-2021 04:50:00 0.8 C 4.91 g/m*3 0.8 C 0 km/h
924 10-01-2021 04:55:00 0.8 C 4.91 g/m*3 0.8 C 0 km/h
925 10-01-2021 05:00:00 0.7 C 4.88 g/m*3 0.7 C 0 km/h
Sensor: Nr:Datum:Temp:Abs-Feuchte:Windchill:Wind:
Aussen-T/F 926 10-01-2021 05:05:00 0.7 C 4.88 g/m*3 0.7 C 0 km/h
927 10-01-2021 05:10:00 0.7 C 4.88 g/m*3 0.7 C 0 km/h
928 10-01-2021 05:15:00 0.7 C 4.88 g/m*3 0.7 C 0 km/h
929 10-01-2021 05:20:00 0.7 C 4.88 g/m*3 0.7 C 0 km/h
930 10-01-2021 05:25:00 0.7 C 4.88 g/m*3 0.7 C 0 km/h
931 10-01-2021 05:30:00 0.7 C 4.88 g/m*3 0.7 C 0 km/h
932 10-01-2021 05:35:00 0.7 C 4.88 g/m*3 0.7 C 0 km/h
933 10-01-2021 05:40:00 0.7 C 4.88 g/m*3 0.7 C 0 km/h
934 10-01-2021 05:45:00 0.7 C 4.88 g/m*3 0.7 C 0 km/h
935 10-01-2021 05:50:00 0.7 C 4.88 g/m*3 0.7 C 0 km/h
936 10-01-2021 05:55:00 0.7 C 4.88 g/m*3 0.7 C 0 km/h
937 10-01-2021 06:00:00 0.7 C 4.88 g/m*3 0.7 C 0 km/h
938 10-01-2021 06:05:00 0.7 C 4.88 g/m*3 0.7 C 0 km/h
939 10-01-2021 06:10:00 0.7 C 4.88 g/m*3 0.7 C 0 km/h
940 10-01-2021 06:15:00 0.7 C 4.88 g/m*3 0.7 C 0 km/h
941 10-01-2021 06:20:00 0.7 C 4.88 g/m*3 0.7 C 0 km/h
942 10-01-2021 06:25:00 0.7 C 4.88 g/m*3 0.7 C 0 km/h
943 10-01-2021 06:30:00 0.7 C 4.88 g/m*3 0.7 C 0 km/h
944 10-01-2021 06:35:00 0.7 C 4.88 g/m*3 0.7 C 0 km/h
945 10-01-2021 06:40:00 0.7 C 4.88 g/m*3 0.7 C 0 km/h
946 10-01-2021 06:45:00 0.7 C 4.88 g/m*3 0.7 C 0 km/h
947 10-01-2021 06:50:00 0.8 C 4.91 g/m*3 0.8 C 0 km/h
948 10-01-2021 06:55:00 0.8 C 4.91 g/m*3 0.8 C 0 km/h
949 10-01-2021 07:00:00 0.8 C 4.91 g/m*3 0.8 C 0 km/h
950 10-01-2021 07:05:00 0.8 C 4.91 g/m*3 0.8 C 0 km/h
Sensor: Nr:Datum:Temp:Abs-Feuchte:Windchill:Wind:
Aussen-T/F 951 10-01-2021 07:10:00 0.8 C 4.91 g/m*3 0.8 C 0 km/h
952 10-01-2021 07:15:00 0.9 C 4.95 g/m*3 0.9 C 0 km/h
953 10-01-2021 07:20:00 0.9 C 4.95 g/m*3 0.9 C 0 km/h
954 10-01-2021 07:25:00 0.9 C 4.95 g/m*3 0.9 C 0 km/h
955 10-01-2021 07:30:00 0.9 C 4.95 g/m*3 0.9 C 0 km/h
956 10-01-2021 07:35:00 0.9 C 4.95 g/m*3 0.9 C 0 km/h
957 10-01-2021 07:40:00 0.8 C 4.91 g/m*3 0.8 C 0 km/h
958 10-01-2021 07:45:00 0.8 C 4.91 g/m*3 0.8 C 0 km/h
959 10-01-2021 07:50:00 0.8 C 4.91 g/m*3 0.8 C 0 km/h
960 10-01-2021 07:55:00 0.8 C 4.91 g/m*3 0.8 C 0 km/h
961 10-01-2021 08:00:00 0.8 C 4.91 g/m*3 0.8 C 0 km/h
962 10-01-2021 08:05:00 0.7 C 4.88 g/m*3 0.7 C 0 km/h
963 10-01-2021 08:10:00 0.7 C 4.88 g/m*3 0.7 C 0 km/h
964 10-01-2021 08:15:00 0.7 C 4.88 g/m*3 0.7 C 0 km/h
965 10-01-2021 08:20:00 0.7 C 4.88 g/m*3 0.7 C 0 km/h
966 10-01-2021 08:25:00 0.7 C 4.88 g/m*3 0.7 C 0 km/h
967 10-01-2021 08:30:00 0.7 C 4.88 g/m*3 0.7 C 0 km/h
968 10-01-2021 08:35:00 0.7 C 4.88 g/m*3 0.7 C 0 km/h
969 10-01-2021 08:40:00 0.7 C 4.88 g/m*3 0.7 C 0 km/h
970 10-01-2021 08:45:00 0.7 C 4.88 g/m*3 0.7 C 0 km/h
971 10-01-2021 08:50:00 0.7 C 4.88 g/m*3 0.7 C 0 km/h
972 10-01-2021 08:55:00 0.7 C 4.88 g/m*3 0.7 C 0 km/h
973 10-01-2021 09:00:00 0.7 C 4.88 g/m*3 0.7 C 0 km/h
974 10-01-2021 09:05:00 0.7 C 4.88 g/m*3 0.7 C 0 km/h
975 10-01-2021 09:10:00 0.7 C 4.88 g/m*3 0.7 C 0 km/h
Sensor: Nr:Datum:Temp:Abs-Feuchte:Windchill:Wind:
Aussen-T/F 976 10-01-2021 09:15:00 0.7 C 4.88 g/m*3 0.7 C 0 km/h
977 10-01-2021 09:20:00 0.7 C 4.88 g/m*3 0.7 C 0 km/h
978 10-01-2021 09:25:00 0.8 C 4.91 g/m*3 0.8 C 0 km/h
979 10-01-2021 09:30:00 0.8 C 4.91 g/m*3 0.8 C 0 km/h
980 10-01-2021 09:35:00 0.8 C 4.91 g/m*3 0.8 C 0 km/h
981 10-01-2021 09:40:00 0.8 C 4.91 g/m*3 0.8 C 0 km/h
982 10-01-2021 09:45:00 0.8 C 4.91 g/m*3 0.8 C 0 km/h
983 10-01-2021 09:50:00 0.9 C 5 g/m*3 0.9 C 0 km/h
984 10-01-2021 09:55:00 0.9 C 5 g/m*3 0.9 C 0 km/h
985 10-01-2021 10:00:00 1 C 5.03 g/m*3 1 C 0 km/h
986 10-01-2021 10:05:00 1.1 C 5.02 g/m*3 1.1 C 0 km/h
987 10-01-2021 10:10:00 1.1 C 5.02 g/m*3 1.1 C 0 km/h
988 10-01-2021 10:15:00 1.2 C 5.05 g/m*3 1.2 C 0 km/h
989 10-01-2021 10:20:00 1.2 C 5.05 g/m*3 1.2 C 0 km/h
990 10-01-2021 10:25:00 1.2 C 5.1 g/m*3 1.2 C 0 km/h
991 10-01-2021 10:30:00 1.3 C 5.14 g/m*3 1.3 C 0 km/h
992 10-01-2021 10:35:00 1.3 C 5.09 g/m*3 1.3 C 0 km/h
993 10-01-2021 10:40:00 1.3 C 5.09 g/m*3 1.3 C 0 km/h
994 10-01-2021 10:45:00 1.4 C 5.12 g/m*3 1.4 C 0 km/h
995 10-01-2021 10:50:00 1.4 C 5.12 g/m*3 1.4 C 0 km/h
996 10-01-2021 10:55:00 1.4 C 5.12 g/m*3 1.4 C 0 km/h
997 10-01-2021 11:00:00 1.4 C 5.12 g/m*3 1.4 C 0 km/h
998 10-01-2021 11:05:00 1.6 C 5.19 g/m*3 1.6 C 0 km/h
999 10-01-2021 11:10:00 1.6 C 5.19 g/m*3 1.6 C 0 km/h
1000 10-01-2021 11:15:00 1.7 C 5.23 g/m*3 1.7 C 0 km/h
Sensor: Nr:Datum:Temp:Abs-Feuchte:Windchill:Wind:
Aussen-T/F 1001 10-01-2021 11:20:00 1.7 C 5.23 g/m*3 1.7 C 0 km/h
1002 10-01-2021 11:25:00 1.8 C 5.26 g/m*3 1.8 C 0 km/h
1003 10-01-2021 11:30:00 1.8 C 5.26 g/m*3 1.8 C 0 km/h
1004 10-01-2021 11:35:00 1.9 C 5.24 g/m*3 1.9 C 0 km/h
1005 10-01-2021 11:40:00 1.9 C 5.24 g/m*3 1.9 C 0 km/h
1006 10-01-2021 11:45:00 1.9 C 5.24 g/m*3 0.01 C 6.4 km/h
1007 10-01-2021 11:50:00 1.9 C 5.19 g/m*3 1.9 C 0 km/h
1008 10-01-2021 11:55:00 2.1 C 5.26 g/m*3 2.1 C 3.2 km/h
1009 10-01-2021 12:00:00 2.1 C 5.26 g/m*3 2.1 C 1.6 km/h
1010 10-01-2021 12:05:00 2.1 C 5.2 g/m*3 2.1 C 1.6 km/h
1011 10-01-2021 12:10:00 2.1 C 5.2 g/m*3 2.1 C 0 km/h
1012 10-01-2021 12:15:00 2.2 C 5.18 g/m*3 2.2 C 1.6 km/h
1013 10-01-2021 12:20:00 2.2 C 5.18 g/m*3 2.2 C 1.6 km/h
1014 10-01-2021 12:25:00 2.3 C 5.22 g/m*3 2.3 C 1.6 km/h
1015 10-01-2021 12:30:00 2.3 C 5.22 g/m*3 2.3 C 3.2 km/h
1016 10-01-2021 12:35:00 2.3 C 5.16 g/m*3 2.3 C 0 km/h
1017 10-01-2021 12:40:00 2.4 C 5.2 g/m*3 2.4 C 3.2 km/h
1018 10-01-2021 12:45:00 2.5 C 5.17 g/m*3 2.5 C 1.6 km/h
1019 10-01-2021 12:50:00 2.7 C 5.24 g/m*3 2.7 C 1.6 km/h
1020 10-01-2021 12:55:00 2.7 C 5.24 g/m*3 2.7 C 4.8 km/h
1021 10-01-2021 13:00:00 2.7 C 5.19 g/m*3 2.7 C 1.6 km/h
1022 10-01-2021 13:05:00 2.7 C 5.13 g/m*3 2.7 C 1.6 km/h
1023 10-01-2021 13:10:00 2.7 C 5.13 g/m*3 2.7 C 1.6 km/h
1024 10-01-2021 13:15:00 2.8 C 5.16 g/m*3 2.8 C 1.6 km/h
1025 10-01-2021 13:20:00 2.8 C 5.1 g/m*3 2.8 C 0 km/h
Sensor: Nr:Datum:Temp:Abs-Feuchte:Windchill:Wind:
Aussen-T/F 1026 10-01-2021 13:25:00 2.8 C 5.1 g/m*3 2.8 C 1.6 km/h
1027 10-01-2021 13:30:00 2.9 C 5.14 g/m*3 2.9 C 0 km/h
1028 10-01-2021 13:35:00 2.9 C 5.08 g/m*3 2.9 C 1.6 km/h
1029 10-01-2021 13:40:00 3 C 5.11 g/m*3 3 C 1.6 km/h
1030 10-01-2021 13:45:00 3.1 C 5.09 g/m*3 3.1 C 1.6 km/h
1031 10-01-2021 13:50:00 3.1 C 5.09 g/m*3 3.1 C 1.6 km/h
1032 10-01-2021 13:55:00 3.1 C 5.09 g/m*3 3.1 C 1.6 km/h
1033 10-01-2021 14:00:00 3.1 C 5.09 g/m*3 3.1 C 0 km/h
1034 10-01-2021 14:05:00 3.1 C 5.03 g/m*3 3.1 C 1.6 km/h
1035 10-01-2021 14:10:00 3.2 C 5.06 g/m*3 3.2 C 0 km/h
1036 10-01-2021 14:15:00 3.2 C 5.12 g/m*3 3.2 C 1.6 km/h
1037 10-01-2021 14:20:00 3.2 C 5 g/m*3 3.2 C 3.2 km/h
1038 10-01-2021 14:25:00 3.2 C 4.94 g/m*3 3.2 C 1.6 km/h
1039 10-01-2021 14:30:00 3.2 C 4.94 g/m*3 3.2 C 3.2 km/h
1040 10-01-2021 14:35:00 3.2 C 4.94 g/m*3 3.2 C 0 km/h
1041 10-01-2021 14:40:00 3.3 C 4.97 g/m*3 3.3 C 0 km/h
1042 10-01-2021 14:45:00 3.3 C 4.91 g/m*3 3.3 C 3.2 km/h
1043 10-01-2021 14:50:00 3.3 C 4.91 g/m*3 3.3 C 1.6 km/h
1044 10-01-2021 14:55:00 3.3 C 4.91 g/m*3 3.3 C 1.6 km/h
1045 10-01-2021 15:00:00 3.3 C 4.85 g/m*3 3.3 C 3.2 km/h
1046 10-01-2021 15:05:00 3.3 C 4.85 g/m*3 3.3 C 1.6 km/h
1047 10-01-2021 15:10:00 3.3 C 4.85 g/m*3 3.3 C 0 km/h
1048 10-01-2021 15:15:00 3.3 C 4.91 g/m*3 3.3 C 0 km/h
1049 10-01-2021 15:20:00 3.3 C 4.85 g/m*3 3.3 C 0 km/h
1050 10-01-2021 15:25:00 3.3 C 4.85 g/m*3 3.3 C 0 km/h
Sensor: Nr:Datum:Temp:Abs-Feuchte:Windchill:Wind:
Aussen-T/F 1051 10-01-2021 15:30:00 3.3 C 4.85 g/m*3 3.3 C 0 km/h
1052 10-01-2021 15:35:00 3.3 C 4.85 g/m*3 3.3 C 0 km/h
1053 10-01-2021 15:40:00 3.3 C 4.85 g/m*3 3.3 C 0 km/h
1054 10-01-2021 15:45:00 3.4 C 5.01 g/m*3 3.4 C 0 km/h
1055 10-01-2021 15:50:00 3.4 C 5.01 g/m*3 3.4 C 0 km/h
1056 10-01-2021 15:55:00 3.4 C 5.07 g/m*3 3.4 C 0 km/h
1057 10-01-2021 16:00:00 3.4 C 5.13 g/m*3 3.4 C 0 km/h
1058 10-01-2021 16:05:00 3.3 C 5.1 g/m*3 3.3 C 0 km/h
1059 10-01-2021 16:10:00 3.2 C 5.06 g/m*3 3.2 C 0 km/h
1060 10-01-2021 16:15:00 3.2 C 5.12 g/m*3 3.2 C 0 km/h
1061 10-01-2021 16:20:00 3.1 C 5.09 g/m*3 3.1 C 0 km/h
1062 10-01-2021 16:25:00 2.9 C 5.02 g/m*3 2.9 C 0 km/h
1063 10-01-2021 16:30:00 2.8 C 5.04 g/m*3 2.8 C 0 km/h
1064 10-01-2021 16:35:00 2.7 C 5.01 g/m*3 2.7 C 1.6 km/h
1065 10-01-2021 16:40:00 2.5 C 4.94 g/m*3 2.5 C 1.6 km/h
1066 10-01-2021 16:45:00 2.3 C 4.88 g/m*3 2.3 C 4.8 km/h
1067 10-01-2021 16:50:00 2.2 C 4.84 g/m*3 2.2 C 0 km/h
1068 10-01-2021 16:55:00 2.1 C 4.87 g/m*3 2.1 C 3.2 km/h
1069 10-01-2021 17:00:00 1.9 C 4.8 g/m*3 1.9 C 4.8 km/h
1070 10-01-2021 17:05:00 1.7 C 4.74 g/m*3 1.7 C 3.2 km/h
1071 10-01-2021 17:10:00 1.6 C 4.7 g/m*3 1.6 C 3.2 km/h
1072 10-01-2021 17:15:00 1.3 C 4.61 g/m*3 1.3 C 4.8 km/h
1073 10-01-2021 17:20:00 1.2 C 4.58 g/m*3 -0.8 C 6.4 km/h
1074 10-01-2021 17:25:00 0.9 C 4.54 g/m*3 0.9 C 3.2 km/h
1075 10-01-2021 17:30:00 0.8 C 4.51 g/m*3 0.8 C 4.8 km/h
Sensor: Nr:Datum:Temp:Abs-Feuchte:Windchill:Wind:
Aussen-T/F 1076 10-01-2021 17:35:00 0.6 C 4.49 g/m*3 0.6 C 4.8 km/h
1077 10-01-2021 17:40:00 0.4 C 4.43 g/m*3 0.4 C 3.2 km/h
1078 10-01-2021 17:45:00 0.3 C 4.4 g/m*3 0.3 C 4.8 km/h
1079 10-01-2021 17:50:00 0.2 C 4.42 g/m*3 0.2 C 4.8 km/h
1080 10-01-2021 17:55:00 0.1 C 4.39 g/m*3 0.1 C 3.2 km/h
1081 10-01-2021 18:00:00 -0.1 C 4.33 g/m*3 -0.1 C 3.2 km/h
1082 10-01-2021 18:05:00 -0.2 C 4.3 g/m*3 -0.2 C 3.2 km/h
1083 10-01-2021 18:10:00 -0.2 C 4.3 g/m*3 -0.2 C 0 km/h
1084 10-01-2021 18:15:00 -0.3 C 4.32 g/m*3 -0.3 C 0 km/h
1085 10-01-2021 18:20:00 -0.4 C 4.29 g/m*3 -0.4 C 3.2 km/h
1086 10-01-2021 18:25:00 -0.4 C 4.29 g/m*3 -0.4 C 3.2 km/h
1087 10-01-2021 18:30:00 -0.5 C 4.26 g/m*3 -0.5 C 1.6 km/h
1088 10-01-2021 18:35:00 -0.6 C 4.23 g/m*3 -0.6 C 0 km/h
1089 10-01-2021 18:40:00 -0.6 C 4.28 g/m*3 -0.6 C 0 km/h
1090 10-01-2021 18:45:00 -0.7 C 4.25 g/m*3 -0.7 C 0 km/h
1091 10-01-2021 18:50:00 -0.7 C 4.25 g/m*3 -0.7 C 0 km/h
1092 10-01-2021 18:55:00 -0.8 C 4.22 g/m*3 -0.8 C 0 km/h
1093 10-01-2021 19:00:00 -0.8 C 4.22 g/m*3 -0.8 C 0 km/h
1094 10-01-2021 19:05:00 -0.9 C 4.19 g/m*3 -0.9 C 0 km/h
1095 10-01-2021 19:10:00 -0.9 C 4.23 g/m*3 -0.9 C 0 km/h
1096 10-01-2021 19:15:00 -0.9 C 4.23 g/m*3 -0.9 C 0 km/h
1097 10-01-2021 19:20:00 -0.9 C 4.23 g/m*3 -0.9 C 0 km/h
1098 10-01-2021 19:25:00 -1 C 4.2 g/m*3 -1 C 0 km/h
1099 10-01-2021 19:30:00 -1.1 C 4.17 g/m*3 -1.1 C 0 km/h
1100 10-01-2021 19:35:00 -1.2 C 4.15 g/m*3 -1.2 C 0 km/h
Sensor: Nr:Datum:Temp:Abs-Feuchte:Windchill:Wind:
Aussen-T/F 1101 10-01-2021 19:40:00 -1.2 C 4.15 g/m*3 -1.2 C 0 km/h
1102 10-01-2021 19:45:00 -1.3 C 4.12 g/m*3 -1.3 C 0 km/h
1103 10-01-2021 19:50:00 -1.3 C 4.12 g/m*3 -1.3 C 0 km/h
1104 10-01-2021 19:55:00 -1.4 C 4.09 g/m*3 -1.4 C 0 km/h
1105 10-01-2021 20:00:00 -1.4 C 4.09 g/m*3 -1.4 C 0 km/h
1106 10-01-2021 20:05:00 -1.4 C 4.09 g/m*3 -1.4 C 0 km/h
1107 10-01-2021 20:10:00 -1.5 C 4.06 g/m*3 -1.5 C 0 km/h
1108 10-01-2021 20:15:00 -1.6 C 4.03 g/m*3 -1.6 C 0 km/h
1109 10-01-2021 20:20:00 -1.6 C 4.07 g/m*3 -1.6 C 0 km/h
1110 10-01-2021 20:25:00 -1.7 C 4.05 g/m*3 -1.7 C 0 km/h
1111 10-01-2021 20:30:00 -1.7 C 4.05 g/m*3 -1.7 C 0 km/h
1112 10-01-2021 20:35:00 -1.7 C 4.05 g/m*3 -1.7 C 0 km/h
1113 10-01-2021 20:40:00 -1.8 C 4.02 g/m*3 -1.8 C 0 km/h
1114 10-01-2021 20:45:00 -1.8 C 4.02 g/m*3 -1.8 C 0 km/h
1115 10-01-2021 20:50:00 -1.8 C 4.02 g/m*3 -1.8 C 0 km/h
1116 10-01-2021 20:55:00 -1.9 C 3.99 g/m*3 -1.9 C 0 km/h
1117 10-01-2021 21:00:00 -1.9 C 3.99 g/m*3 -1.9 C 0 km/h
1118 10-01-2021 21:05:00 -2 C 3.96 g/m*3 -2 C 0 km/h
1119 10-01-2021 21:10:00 -2 C 3.96 g/m*3 -2 C 0 km/h
1120 10-01-2021 21:15:00 -2.1 C 3.93 g/m*3 -2.1 C 0 km/h
1121 10-01-2021 21:20:00 -2.1 C 3.93 g/m*3 -2.1 C 0 km/h
1122 10-01-2021 21:25:00 -2.1 C 3.93 g/m*3 -2.1 C 0 km/h
1123 10-01-2021 21:30:00 -2.1 C 3.93 g/m*3 -2.1 C 0 km/h
1124 10-01-2021 21:35:00 -2.1 C 3.93 g/m*3 -2.1 C 0 km/h
1125 10-01-2021 21:40:00 -2.1 C 3.93 g/m*3 -2.1 C 0 km/h
Sensor: Nr:Datum:Temp:Abs-Feuchte:Windchill:Wind:
Aussen-T/F 1126 10-01-2021 21:45:00 -2.1 C 3.93 g/m*3 -2.1 C 0 km/h
1127 10-01-2021 21:50:00 -2.2 C 3.91 g/m*3 -2.2 C 0 km/h
1128 10-01-2021 21:55:00 -2.2 C 3.91 g/m*3 -2.2 C 0 km/h
1129 10-01-2021 22:00:00 -2.3 C 3.92 g/m*3 -2.3 C 0 km/h
1130 10-01-2021 22:05:00 -2.3 C 3.92 g/m*3 -2.3 C 0 km/h
1131 10-01-2021 22:10:00 -2.3 C 3.88 g/m*3 -2.3 C 0 km/h
1132 10-01-2021 22:15:00 -2.3 C 3.92 g/m*3 -2.3 C 0 km/h
1133 10-01-2021 22:20:00 -2.3 C 3.92 g/m*3 -2.3 C 0 km/h
1134 10-01-2021 22:25:00 -2.3 C 3.92 g/m*3 -2.3 C 0 km/h
1135 10-01-2021 22:30:00 -2.3 C 3.92 g/m*3 -2.3 C 0 km/h
1136 10-01-2021 22:35:00 -2.3 C 3.92 g/m*3 -2.3 C 0 km/h
1137 10-01-2021 22:40:00 -2.4 C 3.89 g/m*3 -2.4 C 0 km/h
1138 10-01-2021 22:45:00 -2.4 C 3.89 g/m*3 -2.4 C 0 km/h
1139 10-01-2021 22:50:00 -2.5 C 3.87 g/m*3 -2.5 C 0 km/h
1140 10-01-2021 22:55:00 -2.6 C 3.84 g/m*3 -2.6 C 0 km/h
1141 10-01-2021 23:00:00 -2.6 C 3.84 g/m*3 -2.6 C 0 km/h
1142 10-01-2021 23:05:00 -2.6 C 3.84 g/m*3 -2.6 C 0 km/h
1143 10-01-2021 23:10:00 -2.7 C 3.81 g/m*3 -2.7 C 0 km/h
1144 10-01-2021 23:15:00 -2.7 C 3.81 g/m*3 -2.7 C 0 km/h
1145 10-01-2021 23:20:00 -2.7 C 3.81 g/m*3 -2.7 C 0 km/h
1146 10-01-2021 23:25:00 -2.7 C 3.81 g/m*3 -2.7 C 1.6 km/h
1147 10-01-2021 23:30:00 -2.7 C 3.81 g/m*3 -2.7 C 0 km/h
1148 10-01-2021 23:35:00 -2.7 C 3.81 g/m*3 -2.7 C 0 km/h
1149 10-01-2021 23:40:00 -2.7 C 3.81 g/m*3 -2.7 C 0 km/h
1150 10-01-2021 23:45:00 -2.7 C 3.81 g/m*3 -2.7 C 0 km/h
Sensor: Nr:Datum:Temp:Abs-Feuchte:Windchill:Wind:
Aussen-T/F 1151 10-01-2021 23:50:00 -2.8 C 3.78 g/m*3 -2.8 C 0 km/h
1152 10-01-2021 23:55:00 -2.9 C 3.76 g/m*3 -2.9 C 0 km/h
1153 11-01-2021 00:00:00 -2.9 C 3.76 g/m*3 -2.9 C 0 km/h
1154 11-01-2021 00:05:00 -3 C 3.73 g/m*3 -3 C 0 km/h
1155 11-01-2021 00:10:00 -3 C 3.73 g/m*3 -3 C 1.6 km/h
1156 11-01-2021 00:15:00 -3 C 3.73 g/m*3 -3 C 0 km/h
1157 11-01-2021 00:20:00 -3 C 3.73 g/m*3 -3 C 0 km/h
1158 11-01-2021 00:25:00 -3 C 3.73 g/m*3 -3 C 0 km/h
1159 11-01-2021 00:30:00 -3 C 3.73 g/m*3 -3 C 0 km/h
1160 11-01-2021 00:35:00 -2.9 C 3.76 g/m*3 -2.9 C 0 km/h
1161 11-01-2021 00:40:00 -2.9 C 3.76 g/m*3 -2.9 C 0 km/h
1162 11-01-2021 00:45:00 -2.9 C 3.76 g/m*3 -2.9 C 0 km/h
1163 11-01-2021 00:50:00 -3 C 3.73 g/m*3 -3 C 0 km/h
1164 11-01-2021 00:55:00 -3.1 C 3.71 g/m*3 -3.1 C 0 km/h
1165 11-01-2021 01:00:00 -3.2 C 3.68 g/m*3 -3.2 C 0 km/h
1166 11-01-2021 01:05:00 -3.2 C 3.68 g/m*3 -3.2 C 0 km/h
1167 11-01-2021 01:10:00 -3.2 C 3.68 g/m*3 -3.2 C 0 km/h
1168 11-01-2021 01:15:00 -3.3 C 3.65 g/m*3 -3.3 C 0 km/h
1169 11-01-2021 01:20:00 -3.3 C 3.65 g/m*3 -3.3 C 0 km/h
1170 11-01-2021 01:25:00 -3.3 C 3.65 g/m*3 -3.3 C 1.6 km/h
1171 11-01-2021 01:30:00 -3.4 C 3.63 g/m*3 -3.4 C 0 km/h
1172 11-01-2021 01:35:00 -3.4 C 3.63 g/m*3 -3.4 C 0 km/h
1173 11-01-2021 01:40:00 -3.4 C 3.63 g/m*3 -3.4 C 0 km/h
1174 11-01-2021 01:45:00 -3.4 C 3.63 g/m*3 -3.4 C 0 km/h
1175 11-01-2021 01:50:00 -3.3 C 3.65 g/m*3 -3.3 C 0 km/h
Sensor: Nr:Datum:Temp:Abs-Feuchte:Windchill:Wind:
Aussen-T/F 1176 11-01-2021 01:55:00 -3.3 C 3.65 g/m*3 -3.3 C 0 km/h
1177 11-01-2021 02:00:00 -3.2 C 3.68 g/m*3 -3.2 C 0 km/h
1178 11-01-2021 02:05:00 -3.2 C 3.68 g/m*3 -3.2 C 0 km/h
1179 11-01-2021 02:10:00 -3.1 C 3.74 g/m*3 -3.1 C 0 km/h
1180 11-01-2021 02:15:00 -3 C 3.77 g/m*3 -3 C 0 km/h
1181 11-01-2021 02:20:00 -2.9 C 3.8 g/m*3 -2.9 C 0 km/h
1182 11-01-2021 02:25:00 -2.9 C 3.8 g/m*3 -2.9 C 0 km/h
1183 11-01-2021 02:30:00 -2.8 C 3.82 g/m*3 -2.8 C 0 km/h
1184 11-01-2021 02:35:00 -2.8 C 3.82 g/m*3 -2.8 C 0 km/h
1185 11-01-2021 02:40:00 -2.8 C 3.82 g/m*3 -2.8 C 0 km/h
1186 11-01-2021 02:45:00 -2.8 C 3.78 g/m*3 -2.8 C 0 km/h
1187 11-01-2021 02:50:00 -2.9 C 3.76 g/m*3 -2.9 C 1.6 km/h
1188 11-01-2021 02:55:00 -2.9 C 3.76 g/m*3 -2.9 C 0 km/h
1189 11-01-2021 03:00:00 -3.1 C 3.71 g/m*3 -3.1 C 0 km/h
1190 11-01-2021 03:05:00 -3.1 C 3.71 g/m*3 -3.1 C 0 km/h
1191 11-01-2021 03:10:00 -3.2 C 3.68 g/m*3 -3.2 C 0 km/h
1192 11-01-2021 03:15:00 -3.2 C 3.68 g/m*3 -3.2 C 0 km/h
1193 11-01-2021 03:20:00 -3.3 C 3.65 g/m*3 -3.3 C 0 km/h
1194 11-01-2021 03:25:00 -3.4 C 3.63 g/m*3 -3.4 C 0 km/h
1195 11-01-2021 03:30:00 -3.4 C 3.63 g/m*3 -3.4 C 0 km/h
1196 11-01-2021 03:35:00 -3.4 C 3.63 g/m*3 -3.4 C 0 km/h
1197 11-01-2021 03:40:00 -3.4 C 3.63 g/m*3 -3.4 C 0 km/h
1198 11-01-2021 03:45:00 -3.4 C 3.63 g/m*3 -3.4 C 0 km/h
1199 11-01-2021 03:50:00 -3.4 C 3.63 g/m*3 -3.4 C 0 km/h
1200 11-01-2021 03:55:00 -3.4 C 3.63 g/m*3 -3.4 C 0 km/h
Sensor: Nr:Datum:Temp:Abs-Feuchte:Windchill:Wind:
Aussen-T/F 1201 11-01-2021 04:00:00 -3.4 C 3.63 g/m*3 -3.4 C 0 km/h
1202 11-01-2021 04:05:00 -3.4 C 3.63 g/m*3 -3.4 C 0 km/h
1203 11-01-2021 04:10:00 -3.5 C 3.6 g/m*3 -3.5 C 0 km/h
1204 11-01-2021 04:15:00 -3.6 C 3.58 g/m*3 -3.6 C 0 km/h
1205 11-01-2021 04:20:00 -3.6 C 3.58 g/m*3 -3.6 C 0 km/h
1206 11-01-2021 04:25:00 -3.6 C 3.58 g/m*3 -3.6 C 0 km/h
1207 11-01-2021 04:30:00 -3.6 C 3.58 g/m*3 -3.6 C 0 km/h
1208 11-01-2021 04:35:00 -3.6 C 3.58 g/m*3 -3.6 C 0 km/h
1209 11-01-2021 04:40:00 -3.7 C 3.55 g/m*3 -3.7 C 0 km/h
1210 11-01-2021 04:45:00 -3.7 C 3.55 g/m*3 -3.7 C 0 km/h
1211 11-01-2021 04:50:00 -3.7 C 3.55 g/m*3 -3.7 C 0 km/h
1212 11-01-2021 04:55:00 -3.7 C 3.55 g/m*3 -3.7 C 0 km/h
1213 11-01-2021 05:00:00 -3.7 C 3.55 g/m*3 -3.7 C 0 km/h
1214 11-01-2021 05:05:00 -3.7 C 3.55 g/m*3 -3.7 C 0 km/h
1215 11-01-2021 05:10:00 -3.8 C 3.53 g/m*3 -3.8 C 0 km/h
1216 11-01-2021 05:15:00 -3.8 C 3.53 g/m*3 -3.8 C 0 km/h
1217 11-01-2021 05:20:00 -3.8 C 3.53 g/m*3 -3.8 C 0 km/h
1218 11-01-2021 05:25:00 -3.8 C 3.53 g/m*3 -3.8 C 0 km/h
1219 11-01-2021 05:30:00 -3.9 C 3.5 g/m*3 -3.9 C 0 km/h
1220 11-01-2021 05:35:00 -3.9 C 3.5 g/m*3 -3.9 C 0 km/h
1221 11-01-2021 05:40:00 -4 C 3.48 g/m*3 -4 C 0 km/h
1222 11-01-2021 05:45:00 -4 C 3.48 g/m*3 -4 C 0 km/h
1223 11-01-2021 05:50:00 -4 C 3.48 g/m*3 -4 C 0 km/h
1224 11-01-2021 05:55:00 -4 C 3.48 g/m*3 -4 C 0 km/h
1225 11-01-2021 06:00:00 -4 C 3.48 g/m*3 -4 C 0 km/h
Sensor: Nr:Datum:Temp:Abs-Feuchte:Windchill:Wind:
Aussen-T/F 1226 11-01-2021 06:05:00 -4.1 C 3.45 g/m*3 -4.1 C 0 km/h
1227 11-01-2021 06:10:00 -4.1 C 3.45 g/m*3 -4.1 C 0 km/h
1228 11-01-2021 06:15:00 -4.1 C 3.45 g/m*3 -4.1 C 0 km/h
1229 11-01-2021 06:20:00 -4.2 C 3.43 g/m*3 -4.2 C 0 km/h
1230 11-01-2021 06:25:00 -4.2 C 3.43 g/m*3 -4.2 C 0 km/h
1231 11-01-2021 06:30:00 -4.2 C 3.43 g/m*3 -4.2 C 0 km/h
1232 11-01-2021 06:35:00 -4.2 C 3.43 g/m*3 -4.2 C 0 km/h
1233 11-01-2021 06:40:00 -4.2 C 3.46 g/m*3 -4.2 C 0 km/h
1234 11-01-2021 06:45:00 -4.1 C 3.49 g/m*3 -4.1 C 0 km/h
1235 11-01-2021 06:50:00 -4.1 C 3.49 g/m*3 -4.1 C 0 km/h
1236 11-01-2021 06:55:00 -4 C 3.51 g/m*3 -4 C 0 km/h
1237 11-01-2021 07:00:00 -4.1 C 3.49 g/m*3 -4.1 C 0 km/h
1238 11-01-2021 07:05:00 -4.1 C 3.49 g/m*3 -4.1 C 0 km/h
1239 11-01-2021 07:10:00 -4 C 3.51 g/m*3 -4 C 0 km/h
1240 11-01-2021 07:15:00 -3.9 C 3.54 g/m*3 -3.9 C 0 km/h
1241 11-01-2021 07:20:00 -3.9 C 3.54 g/m*3 -3.9 C 0 km/h
1242 11-01-2021 07:25:00 -3.9 C 3.54 g/m*3 -3.9 C 0 km/h
1243 11-01-2021 07:30:00 -3.9 C 3.54 g/m*3 -3.9 C 0 km/h
1244 11-01-2021 07:35:00 -3.9 C 3.54 g/m*3 -3.9 C 1.6 km/h
1245 11-01-2021 07:40:00 -3.9 C 3.54 g/m*3 -3.9 C 0 km/h
1246 11-01-2021 07:45:00 -3.9 C 3.54 g/m*3 -3.9 C 0 km/h
1247 11-01-2021 07:50:00 -3.8 C 3.56 g/m*3 -3.8 C 4.8 km/h
1248 11-01-2021 07:55:00 -3.8 C 3.56 g/m*3 -3.8 C 1.6 km/h
1249 11-01-2021 08:00:00 -3.7 C 3.59 g/m*3 -3.7 C 3.2 km/h
1250 11-01-2021 08:05:00 -3.6 C 3.61 g/m*3 -3.6 C 1.6 km/h
Sensor: Nr:Datum:Temp:Abs-Feuchte:Windchill:Wind:
Aussen-T/F 1251 11-01-2021 08:10:00 -3.5 C 3.64 g/m*3 -3.5 C 3.2 km/h
1252 11-01-2021 08:15:00 -3.4 C 3.67 g/m*3 -3.4 C 4.8 km/h
1253 11-01-2021 08:20:00 -3.3 C 3.69 g/m*3 -3.3 C 1.6 km/h
1254 11-01-2021 08:25:00 -3.3 C 3.69 g/m*3 -3.3 C 0 km/h
1255 11-01-2021 08:30:00 -3.3 C 3.69 g/m*3 -3.3 C 0 km/h
1256 11-01-2021 08:35:00 -3.3 C 3.69 g/m*3 -3.3 C 0 km/h
1257 11-01-2021 08:40:00 -3.3 C 3.69 g/m*3 -3.3 C 0 km/h
1258 11-01-2021 08:45:00 -3.3 C 3.69 g/m*3 -3.3 C 0 km/h
1259 11-01-2021 08:50:00 -3.2 C 3.72 g/m*3 -3.2 C 0 km/h
1260 11-01-2021 08:55:00 -3.2 C 3.72 g/m*3 -3.2 C 0 km/h
1261 11-01-2021 09:00:00 -3.1 C 3.74 g/m*3 -3.1 C 0 km/h
1262 11-01-2021 09:05:00 -2.9 C 3.8 g/m*3 -2.9 C 3.2 km/h
1263 11-01-2021 09:10:00 -2.9 C 3.8 g/m*3 -2.9 C 0 km/h
1264 11-01-2021 09:15:00 -2.8 C 3.82 g/m*3 -2.8 C 4.8 km/h
1265 11-01-2021 09:20:00 -2.7 C 3.85 g/m*3 -2.7 C 0 km/h
1266 11-01-2021 09:25:00 -2.6 C 3.88 g/m*3 -2.6 C 1.6 km/h
1267 11-01-2021 09:30:00 -2.6 C 3.88 g/m*3 -2.6 C 0 km/h
1268 11-01-2021 09:35:00 -2.5 C 3.91 g/m*3 -2.5 C 1.6 km/h
1269 11-01-2021 09:40:00 -2.4 C 3.93 g/m*3 -2.4 C 0 km/h
1270 11-01-2021 09:45:00 -2.3 C 3.96 g/m*3 -2.3 C 0 km/h
1271 11-01-2021 09:50:00 -2.2 C 3.99 g/m*3 -2.2 C 0 km/h
1272 11-01-2021 09:55:00 -2.2 C 3.99 g/m*3 -2.2 C 0 km/h
1273 11-01-2021 10:00:00 -2.1 C 3.98 g/m*3 -2.1 C 0 km/h
1274 11-01-2021 10:05:00 -1.9 C 4.03 g/m*3 -1.9 C 0 km/h
1275 11-01-2021 10:10:00 -1.8 C 4.1 g/m*3 -4.26 C 6.4 km/h
Sensor: Nr:Datum:Temp:Abs-Feuchte:Windchill:Wind:
Aussen-T/F 1276 11-01-2021 10:15:00 -1.6 C 4.16 g/m*3 -4.03 C 6.4 km/h
1277 11-01-2021 10:20:00 -1.5 C 4.15 g/m*3 -1.5 C 4.8 km/h
1278 11-01-2021 10:25:00 -1.3 C 4.21 g/m*3 -1.3 C 3.2 km/h
1279 11-01-2021 10:30:00 -1.3 C 4.21 g/m*3 -3.68 C 6.4 km/h
1280 11-01-2021 10:35:00 -1.2 C 4.19 g/m*3 -3.57 C 6.4 km/h
1281 11-01-2021 10:40:00 -1 C 4.25 g/m*3 -3.34 C 6.4 km/h
1282 11-01-2021 10:45:00 -0.8 C 4.31 g/m*3 -0.8 C 4.8 km/h
1283 11-01-2021 10:50:00 -0.7 C 4.29 g/m*3 -4.07 C 9.7 km/h
1284 11-01-2021 10:55:00 -0.5 C 4.31 g/m*3 -3.83 C 9.7 km/h
1285 11-01-2021 11:00:00 -0.3 C 4.37 g/m*3 -2.53 C 6.4 km/h
1286 11-01-2021 11:05:00 -0.2 C 4.35 g/m*3 -3 C 8.1 km/h
1287 11-01-2021 11:10:00 -0.1 C 4.38 g/m*3 -2.3 C 6.4 km/h
1288 11-01-2021 11:15:00 0 C 4.36 g/m*3 -2.18 C 6.4 km/h
1289 11-01-2021 11:20:00 0.1 C 4.34 g/m*3 -2.65 C 8.1 km/h
1290 11-01-2021 11:25:00 0.1 C 4.34 g/m*3 -2.07 C 6.4 km/h
1291 11-01-2021 11:30:00 0.1 C 4.29 g/m*3 -2.07 C 6.4 km/h
1292 11-01-2021 11:35:00 0.2 C 4.32 g/m*3 0.2 C 4.8 km/h
1293 11-01-2021 11:40:00 0.2 C 4.32 g/m*3 -3.4 C 11.3 km/h
1294 11-01-2021 11:45:00 0.2 C 4.27 g/m*3 -3.4 C 11.3 km/h
1295 11-01-2021 11:50:00 0.3 C 4.25 g/m*3 -2.88 C 9.7 km/h
1296 11-01-2021 11:55:00 0.4 C 4.28 g/m*3 -3.16 C 11.3 km/h
1297 11-01-2021 12:00:00 0.4 C 4.28 g/m*3 -1.72 C 6.4 km/h
1298 11-01-2021 12:05:00 0.6 C 4.34 g/m*3 -3.27 C 12.9 km/h
1299 11-01-2021 12:10:00 0.6 C 4.29 g/m*3 -2.92 C 11.3 km/h
1300 11-01-2021 12:15:00 0.7 C 4.32 g/m*3 -2.8 C 11.3 km/h
Sensor: Nr:Datum:Temp:Abs-Feuchte:Windchill:Wind:
Aussen-T/F 1301 11-01-2021 12:20:00 0.8 C 4.35 g/m*3 -2.28 C 9.7 km/h
1302 11-01-2021 12:25:00 1 C 4.36 g/m*3 -2.43 C 11.3 km/h
1303 11-01-2021 12:30:00 1.1 C 4.39 g/m*3 -1.48 C 8.1 km/h
1304 11-01-2021 12:35:00 1.2 C 4.31 g/m*3 -3.63 C 19.3 km/h
1305 11-01-2021 12:40:00 1.3 C 4.4 g/m*3 -1.24 C 8.1 km/h
1306 11-01-2021 12:45:00 1.4 C 4.37 g/m*3 -2.29 C 12.9 km/h
1307 11-01-2021 12:50:00 1.5 C 4.4 g/m*3 -0.45 C 6.4 km/h
1308 11-01-2021 12:55:00 1.6 C 4.38 g/m*3 -2.05 C 12.9 km/h
1309 11-01-2021 13:00:00 1.6 C 4.38 g/m*3 -1.71 C 11.3 km/h
1310 11-01-2021 13:05:00 1.6 C 4.38 g/m*3 -0.89 C 8.1 km/h
1311 11-01-2021 13:10:00 1.6 C 4.38 g/m*3 -0.33 C 6.4 km/h
1312 11-01-2021 13:15:00 1.7 C 4.41 g/m*3 -1.59 C 11.3 km/h
1313 11-01-2021 13:20:00 1.7 C 4.41 g/m*3 -0.22 C 6.4 km/h
1314 11-01-2021 13:25:00 1.8 C 4.44 g/m*3 -1.09 C 9.7 km/h
1315 11-01-2021 13:30:00 1.9 C 4.47 g/m*3 -1.35 C 11.3 km/h
1316 11-01-2021 13:35:00 1.9 C 4.47 g/m*3 -1.35 C 11.3 km/h
1317 11-01-2021 13:40:00 1.9 C 4.42 g/m*3 -1.98 C 14.5 km/h
1318 11-01-2021 13:45:00 2 C 4.45 g/m*3 -1.86 C 14.5 km/h
1319 11-01-2021 13:50:00 2.1 C 4.48 g/m*3 -0.73 C 9.7 km/h
1320 11-01-2021 13:55:00 2.1 C 4.48 g/m*3 -0.73 C 9.7 km/h
1321 11-01-2021 14:00:00 2.2 C 4.51 g/m*3 -0.61 C 9.7 km/h
1322 11-01-2021 14:05:00 2.2 C 4.51 g/m*3 -0.61 C 9.7 km/h
1323 11-01-2021 14:10:00 2.2 C 4.51 g/m*3 0.36 C 6.4 km/h
1324 11-01-2021 14:15:00 2.2 C 4.51 g/m*3 0.36 C 6.4 km/h
1325 11-01-2021 14:20:00 2.3 C 4.54 g/m*3 -0.49 C 9.7 km/h
Sensor: Nr:Datum:Temp:Abs-Feuchte:Windchill:Wind:
Aussen-T/F 1326 11-01-2021 14:25:00 2.3 C 4.59 g/m*3 -0.07 C 8.1 km/h
1327 11-01-2021 14:30:00 2.3 C 4.59 g/m*3 -0.49 C 9.7 km/h
1328 11-01-2021 14:35:00 2.3 C 4.54 g/m*3 -0.07 C 8.1 km/h
1329 11-01-2021 14:40:00 2.3 C 4.54 g/m*3 2.3 C 4.8 km/h
1330 11-01-2021 14:45:00 2.3 C 4.59 g/m*3 2.3 C 4.8 km/h
1331 11-01-2021 14:50:00 2.3 C 4.59 g/m*3 2.3 C 4.8 km/h
1332 11-01-2021 14:55:00 2.3 C 4.59 g/m*3 -0.07 C 8.1 km/h
1333 11-01-2021 15:00:00 2.3 C 4.59 g/m*3 0.47 C 6.4 km/h
1334 11-01-2021 15:05:00 2.3 C 4.59 g/m*3 2.3 C 4.8 km/h
1335 11-01-2021 15:10:00 2.3 C 4.65 g/m*3 2.3 C 0 km/h
1336 11-01-2021 15:15:00 2.4 C 4.68 g/m*3 2.4 C 0 km/h
1337 11-01-2021 15:20:00 2.4 C 4.68 g/m*3 2.4 C 0 km/h
1338 11-01-2021 15:25:00 2.4 C 4.68 g/m*3 -0.37 C 9.7 km/h
1339 11-01-2021 15:30:00 2.4 C 4.68 g/m*3 2.4 C 4.8 km/h
1340 11-01-2021 15:35:00 2.4 C 4.68 g/m*3 2.4 C 4.8 km/h
1341 11-01-2021 15:40:00 2.4 C 4.68 g/m*3 2.4 C 1.6 km/h
1342 11-01-2021 15:45:00 2.4 C 4.74 g/m*3 2.4 C 3.2 km/h
1343 11-01-2021 15:50:00 2.4 C 4.74 g/m*3 0.59 C 6.4 km/h
1344 11-01-2021 15:55:00 2.4 C 4.8 g/m*3 2.4 C 3.2 km/h
1345 11-01-2021 16:00:00 2.5 C 4.83 g/m*3 2.5 C 0 km/h
1346 11-01-2021 16:05:00 2.5 C 4.83 g/m*3 2.5 C 0 km/h
1347 11-01-2021 16:10:00 2.4 C 4.8 g/m*3 2.4 C 0 km/h
1348 11-01-2021 16:15:00 2.4 C 4.85 g/m*3 2.4 C 1.6 km/h
1349 11-01-2021 16:20:00 2.4 C 4.85 g/m*3 2.4 C 0 km/h
1350 11-01-2021 16:25:00 2.4 C 4.85 g/m*3 2.4 C 0 km/h
Sensor: Nr:Datum:Temp:Abs-Feuchte:Windchill:Wind:
Aussen-T/F 1351 11-01-2021 16:30:00 2.3 C 4.88 g/m*3 2.3 C 1.6 km/h
1352 11-01-2021 16:35:00 2.3 C 4.88 g/m*3 2.3 C 0 km/h
1353 11-01-2021 16:40:00 2.3 C 4.88 g/m*3 2.3 C 1.6 km/h
1354 11-01-2021 16:45:00 2.2 C 4.9 g/m*3 2.2 C 1.6 km/h
1355 11-01-2021 16:50:00 2.2 C 4.9 g/m*3 2.2 C 0 km/h
1356 11-01-2021 16:55:00 2.1 C 4.87 g/m*3 2.1 C 0 km/h
1357 11-01-2021 17:00:00 2 C 4.83 g/m*3 2 C 3.2 km/h
1358 11-01-2021 17:05:00 1.9 C 4.86 g/m*3 1.9 C 3.2 km/h
1359 11-01-2021 17:10:00 1.9 C 4.86 g/m*3 1.9 C 0 km/h
1360 11-01-2021 17:15:00 1.8 C 4.82 g/m*3 1.8 C 3.2 km/h
1361 11-01-2021 17:20:00 1.8 C 4.82 g/m*3 1.8 C 3.2 km/h
1362 11-01-2021 17:25:00 1.8 C 4.88 g/m*3 1.8 C 1.6 km/h
1363 11-01-2021 17:30:00 1.8 C 4.88 g/m*3 1.8 C 3.2 km/h
1364 11-01-2021 17:35:00 1.7 C 4.85 g/m*3 1.7 C 1.6 km/h
1365 11-01-2021 17:40:00 1.7 C 4.85 g/m*3 1.7 C 0 km/h
1366 11-01-2021 17:45:00 1.7 C 4.85 g/m*3 1.7 C 1.6 km/h
1367 11-01-2021 17:50:00 1.7 C 4.85 g/m*3 1.7 C 3.2 km/h
1368 11-01-2021 17:55:00 1.7 C 4.85 g/m*3 1.7 C 0 km/h
1369 11-01-2021 18:00:00 1.6 C 4.81 g/m*3 1.6 C 0 km/h
1370 11-01-2021 18:05:00 1.6 C 4.81 g/m*3 1.6 C 0 km/h
1371 11-01-2021 18:10:00 1.6 C 4.81 g/m*3 1.6 C 4.8 km/h
1372 11-01-2021 18:15:00 1.6 C 4.76 g/m*3 1.6 C 0 km/h
1373 11-01-2021 18:20:00 1.7 C 4.79 g/m*3 1.7 C 1.6 km/h
1374 11-01-2021 18:25:00 1.7 C 4.79 g/m*3 1.7 C 0 km/h
1375 11-01-2021 18:30:00 1.7 C 4.85 g/m*3 1.7 C 1.6 km/h
Sensor: Nr:Datum:Temp:Abs-Feuchte:Windchill:Wind:
Aussen-T/F 1376 11-01-2021 18:35:00 1.7 C 4.85 g/m*3 1.7 C 3.2 km/h
1377 11-01-2021 18:40:00 1.7 C 4.85 g/m*3 1.7 C 3.2 km/h
1378 11-01-2021 18:45:00 1.7 C 4.85 g/m*3 1.7 C 1.6 km/h
1379 11-01-2021 18:50:00 1.7 C 4.85 g/m*3 -0.22 C 6.4 km/h
1380 11-01-2021 18:55:00 1.7 C 4.85 g/m*3 1.7 C 0 km/h
1381 11-01-2021 19:00:00 1.7 C 4.79 g/m*3 1.7 C 0 km/h
1382 11-01-2021 19:05:00 1.7 C 4.79 g/m*3 1.7 C 0 km/h
1383 11-01-2021 19:10:00 1.7 C 4.85 g/m*3 1.7 C 1.6 km/h
1384 11-01-2021 19:15:00 1.7 C 4.79 g/m*3 1.7 C 3.2 km/h
1385 11-01-2021 19:20:00 1.8 C 4.82 g/m*3 1.8 C 3.2 km/h
1386 11-01-2021 19:25:00 1.8 C 4.82 g/m*3 -0.1 C 6.4 km/h
1387 11-01-2021 19:30:00 1.8 C 4.82 g/m*3 1.8 C 4.8 km/h
1388 11-01-2021 19:35:00 1.8 C 4.82 g/m*3 1.8 C 3.2 km/h
1389 11-01-2021 19:40:00 1.8 C 4.82 g/m*3 1.8 C 1.6 km/h
1390 11-01-2021 19:45:00 1.8 C 4.82 g/m*3 -0.65 C 8.1 km/h
1391 11-01-2021 19:50:00 1.8 C 4.82 g/m*3 1.8 C 3.2 km/h
1392 11-01-2021 19:55:00 1.8 C 4.82 g/m*3 1.8 C 4.8 km/h
1393 11-01-2021 20:00:00 1.8 C 4.82 g/m*3 -0.1 C 6.4 km/h
1394 11-01-2021 20:05:00 1.9 C 4.86 g/m*3 -0.54 C 8.1 km/h
1395 11-01-2021 20:10:00 1.9 C 4.86 g/m*3 1.9 C 0 km/h
1396 11-01-2021 20:15:00 1.9 C 4.86 g/m*3 1.9 C 4.8 km/h
1397 11-01-2021 20:20:00 1.9 C 4.86 g/m*3 0.01 C 6.4 km/h
1398 11-01-2021 20:25:00 2 C 4.83 g/m*3 2 C 1.6 km/h
1399 11-01-2021 20:30:00 2 C 4.83 g/m*3 2 C 1.6 km/h
1400 11-01-2021 20:35:00 2.1 C 4.92 g/m*3 0.24 C 6.4 km/h
Sensor: Nr:Datum:Temp:Abs-Feuchte:Windchill:Wind:
Aussen-T/F 1401 11-01-2021 20:40:00 2.1 C 4.92 g/m*3 2.1 C 1.6 km/h
1402 11-01-2021 20:45:00 2.1 C 4.92 g/m*3 2.1 C 3.2 km/h
1403 11-01-2021 20:50:00 2.1 C 4.92 g/m*3 2.1 C 3.2 km/h
1404 11-01-2021 20:55:00 2.2 C 4.96 g/m*3 0.36 C 6.4 km/h
1405 11-01-2021 21:00:00 2.2 C 4.9 g/m*3 2.2 C 3.2 km/h
1406 11-01-2021 21:05:00 2.2 C 4.9 g/m*3 0.36 C 6.4 km/h
1407 11-01-2021 21:10:00 2.2 C 4.9 g/m*3 0.36 C 6.4 km/h
1408 11-01-2021 21:15:00 2.3 C 4.93 g/m*3 -0.07 C 8.1 km/h
1409 11-01-2021 21:20:00 2.3 C 4.93 g/m*3 2.3 C 4.8 km/h
1410 11-01-2021 21:25:00 2.3 C 4.93 g/m*3 -0.07 C 8.1 km/h
1411 11-01-2021 21:30:00 2.4 C 4.91 g/m*3 0.05 C 8.1 km/h
1412 11-01-2021 21:35:00 2.4 C 4.91 g/m*3 2.4 C 1.6 km/h
1413 11-01-2021 21:40:00 2.4 C 4.91 g/m*3 2.4 C 1.6 km/h
1414 11-01-2021 21:45:00 2.4 C 4.97 g/m*3 0.59 C 6.4 km/h
1415 11-01-2021 21:50:00 2.4 C 4.97 g/m*3 2.4 C 4.8 km/h
1416 11-01-2021 21:55:00 2.4 C 4.97 g/m*3 2.4 C 4.8 km/h
1417 11-01-2021 22:00:00 2.4 C 4.97 g/m*3 2.4 C 1.6 km/h
1418 11-01-2021 22:05:00 2.4 C 4.97 g/m*3 2.4 C 3.2 km/h
1419 11-01-2021 22:10:00 2.4 C 4.97 g/m*3 2.4 C 3.2 km/h
1420 11-01-2021 22:15:00 2.4 C 4.97 g/m*3 2.4 C 0 km/h
1421 11-01-2021 22:20:00 2.4 C 4.97 g/m*3 2.4 C 3.2 km/h
1422 11-01-2021 22:25:00 2.4 C 4.97 g/m*3 2.4 C 3.2 km/h
1423 11-01-2021 22:30:00 2.4 C 5.02 g/m*3 0.59 C 6.4 km/h
1424 11-01-2021 22:35:00 2.5 C 5.06 g/m*3 2.5 C 4.8 km/h
1425 11-01-2021 22:40:00 2.6 C 5.03 g/m*3 0.29 C 8.1 km/h
Sensor: Nr:Datum:Temp:Abs-Feuchte:Windchill:Wind:
Aussen-T/F 1426 11-01-2021 22:45:00 2.6 C 5.03 g/m*3 -0.83 C 12.9 km/h
1427 11-01-2021 22:50:00 2.7 C 5.07 g/m*3 -1 C 14.5 km/h
1428 11-01-2021 22:55:00 2.7 C 5.07 g/m*3 -1 C 14.5 km/h
1429 11-01-2021 23:00:00 2.8 C 5.1 g/m*3 -1.61 C 19.3 km/h
1430 11-01-2021 23:05:00 2.8 C 5.1 g/m*3 -0.59 C 12.9 km/h
1431 11-01-2021 23:10:00 2.8 C 5.1 g/m*3 -0.26 C 11.3 km/h
1432 11-01-2021 23:15:00 2.8 C 5.1 g/m*3 0.1 C 9.7 km/h
1433 11-01-2021 23:20:00 2.8 C 5.1 g/m*3 0.1 C 9.7 km/h
1434 11-01-2021 23:25:00 2.8 C 5.1 g/m*3 0.52 C 8.1 km/h
1435 11-01-2021 23:30:00 2.8 C 5.1 g/m*3 0.1 C 9.7 km/h
1436 11-01-2021 23:35:00 2.8 C 5.1 g/m*3 2.8 C 4.8 km/h
1437 11-01-2021 23:40:00 2.8 C 5.1 g/m*3 0.1 C 9.7 km/h
1438 11-01-2021 23:45:00 2.8 C 5.1 g/m*3 0.1 C 9.7 km/h
1439 11-01-2021 23:50:00 2.8 C 5.1 g/m*3 2.8 C 4.8 km/h
1440 11-01-2021 23:55:00 2.8 C 5.16 g/m*3 0.52 C 8.1 km/h

Legende:
   Min
   Max


Maximal/Minimal-Werte vom 07.01.2021 - 11.01.2021

Sensor Min Max Avg
Temp
(Aussen-T/F)
-4.2 °C
11-01-2021  06:20:00
3.4 °C
10-01-2021  15:45:00
1.12 °C
Abs-Feuchte
(Aussen-T/F)
3.43 g/m*3
11-01-2021  06:20:00
5.56 g/m*3
08-01-2021  12:25:00
4.87 g/m*3
Windchill
(Aussen-T/F)
-4.26 C
11-01-2021  10:10:00
3.4 C
10-01-2021  15:45:00
0.53 C

Die Daten stammen von einer Davis Vantage Pro 2 Wetter-Station und werden unter Linux mit der Software wview2wettercgi und aufbereitet. Alle Angaben erfolgen ohne Gewähr für ihre Vollständigkeit oder Richtigkeit.
Kontakt: Rainer Krienke krienke@uni-koblenz.de . Meine Webseiten an der Uni Koblenz oder privat.
Version: $Revision: 0.78 $